Wetterdaten: aktuell Donnerstag, 09.07.2020 06:04
Datum Zeit Temp. A. Feuchte A. Luftdruck Regen Wind Richtung Richtung Sonnenschein UV-Index Solar Windchill Windben
09.07.2020 06:04 13.2 C 91 % 1016.8 mbar 0.00 mm 0.0 km/h W 273 0 min 0.0 UV-I 7 W/m 13.2 C 0.0 km/h
09.07.2020 06:02 13.2 C 91 % 1016.8 mbar 0.00 mm 0.0 km/h W 273 0 min 0.0 UV-I 7 W/m 13.2 C 0.0 km/h
09.07.2020 06:00 13.2 C 90 % 1016.8 mbar 0.00 mm 0.2 km/h W 273 0 min 0.0 UV-I 7 W/m 13.2 C 1.6 km/h
09.07.2020 05:58 13.3 C 90 % 1016.8 mbar 0.00 mm 1.5 km/h W 273 0 min 0.0 UV-I 7 W/m 13.3 C 3.2 km/h
09.07.2020 05:56 13.3 C 90 % 1016.7 mbar 0.00 mm 0.8 km/h W 273 0 min 0.0 UV-I 7 W/m 13.3 C 1.6 km/h
09.07.2020 05:54 13.3 C 90 % 1016.7 mbar 0.00 mm 0.9 km/h W 273 0 min 0.0 UV-I 5 W/m 13.3 C 1.6 km/h
09.07.2020 05:52 13.3 C 90 % 1016.7 mbar 0.00 mm 1.8 km/h W 273 0 min 0.0 UV-I 5 W/m 13.3 C 3.2 km/h
09.07.2020 05:50 13.3 C 90 % 1016.7 mbar 0.00 mm 3.4 km/h W 273 0 min 0.0 UV-I 5 W/m 13.3 C 4.8 km/h
09.07.2020 05:48 13.3 C 91 % 1016.7 mbar 0.00 mm 2.6 km/h W 273 0 min 0.0 UV-I 5 W/m 13.3 C 4.8 km/h
09.07.2020 05:46 13.3 C 89 % 1016.7 mbar 0.00 mm 1.7 km/h W 273 0 min 0.0 UV-I 0 W/m 13.3 C 3.2 km/h
09.07.2020 05:44 13.4 C 89 % 1016.7 mbar 0.00 mm 1.9 km/h W 273 0 min 0.0 UV-I 0 W/m 13.4 C 3.2 km/h
09.07.2020 05:42 13.6 C 89 % 1016.7 mbar 0.00 mm 1.8 km/h W 273 0 min 0.0 UV-I 0 W/m 13.6 C 3.2 km/h
09.07.2020 05:40 13.6 C 89 % 1016.7 mbar 0.00 mm 1.0 km/h W 273 0 min 0.0 UV-I 0 W/m 13.6 C 3.2 km/h
09.07.2020 05:38 13.7 C 89 % 1016.7 mbar 0.00 mm 0.2 km/h W 273 0 min 0.0 UV-I 0 W/m 13.7 C 1.6 km/h
09.07.2020 05:36 13.7 C 88 % 1016.7 mbar 0.00 mm 2.5 km/h W 273 0 min 0.0 UV-I 0 W/m 13.7 C 3.2 km/h
09.07.2020 05:34 13.8 C 88 % 1016.7 mbar 0.00 mm 3.3 km/h W 273 0 min 0.0 UV-I 0 W/m 13.8 C 4.8 km/h
09.07.2020 05:32 13.8 C 88 % 1016.7 mbar 0.00 mm 2.4 km/h W 273 0 min 0.0 UV-I 0 W/m 13.8 C 3.2 km/h
09.07.2020 05:30 13.8 C 89 % 1016.6 mbar 0.00 mm 2.8 km/h W 273 0 min 0.0 UV-I 0 W/m 13.8 C 3.2 km/h
09.07.2020 05:28 13.7 C 89 % 1016.6 mbar 0.00 mm 3.3 km/h W 273 0 min 0.0 UV-I 0 W/m 13.7 C 4.8 km/h
09.07.2020 05:26 13.8 C 88 % 1016.6 mbar 0.00 mm 4.0 km/h W 273 0 min 0.0 UV-I 0 W/m 13.8 C 4.8 km/h
09.07.2020 05:24 13.9 C 89 % 1016.7 mbar 0.00 mm 1.0 km/h W 273 0 min 0.0 UV-I 0 W/m 13.9 C 3.2 km/h
09.07.2020 05:22 13.9 C 89 % 1016.7 mbar 0.00 mm 0.0 km/h W 273 0 min 0.0 UV-I 0 W/m 13.9 C 0.0 km/h
09.07.2020 05:20 13.9 C 90 % 1016.6 mbar 0.00 mm 0.5 km/h W 273 0 min 0.0 UV-I 0 W/m 13.9 C 1.6 km/h
09.07.2020 05:18 13.8 C 90 % 1016.7 mbar 0.00 mm 1.8 km/h W 273 0 min 0.0 UV-I 0 W/m 13.8 C 3.2 km/h
09.07.2020 05:16 13.8 C 91 % 1016.6 mbar 0.00 mm 1.1 km/h W 273 0 min 0.0 UV-I 0 W/m 13.8 C 3.2 km/h
09.07.2020 05:14 13.7 C 90 % 1016.6 mbar 0.00 mm 1.5 km/h W 273 0 min 0.0 UV-I 0 W/m 13.7 C 3.2 km/h
09.07.2020 05:12 13.6 C 90 % 1016.6 mbar 0.00 mm 2.2 km/h W 273 0 min 0.0 UV-I 0 W/m 13.6 C 3.2 km/h
09.07.2020 05:10 13.7 C 90 % 1016.7 mbar 0.00 mm 1.3 km/h W 273 0 min 0.0 UV-I 0 W/m 13.7 C 3.2 km/h
09.07.2020 05:08 13.8 C 89 % 1016.6 mbar 0.00 mm 1.3 km/h W 273 0 min 0.0 UV-I 0 W/m 13.8 C 3.2 km/h
09.07.2020 05:06 13.8 C 90 % 1016.6 mbar 0.00 mm 3.2 km/h W 273 0 min 0.0 UV-I 0 W/m 13.8 C 4.8 km/h
09.07.2020 05:04 13.8 C 90 % 1016.6 mbar 0.00 mm 2.5 km/h W 273 0 min 0.0 UV-I 0 W/m 13.8 C 4.8 km/h
09.07.2020 05:02 13.8 C 90 % 1016.6 mbar 0.00 mm 2.7 km/h W 273 0 min 0.0 UV-I 0 W/m 13.8 C 3.2 km/h
09.07.2020 05:00 13.7 C 90 % 1016.6 mbar 0.00 mm 3.8 km/h W 273 0 min 0.0 UV-I 0 W/m 13.7 C 4.8 km/h
09.07.2020 04:58 13.4 C 91 % 1016.6 mbar 0.00 mm 4.0 km/h W 273 0 min 0.0 UV-I 0 W/m 13.4 C 4.8 km/h
09.07.2020 04:56 13.5 C 91 % 1016.6 mbar 0.00 mm 3.9 km/h W 273 0 min 0.0 UV-I 0 W/m 13.5 C 4.8 km/h
09.07.2020 04:54 13.7 C 91 % 1016.6 mbar 0.00 mm 3.3 km/h W 273 0 min 0.0 UV-I 0 W/m 13.7 C 4.8 km/h
09.07.2020 04:52 13.9 C 90 % 1016.6 mbar 0.00 mm 2.7 km/h W 273 0 min 0.0 UV-I 0 W/m 13.9 C 4.8 km/h
09.07.2020 04:50 13.8 C 90 % 1016.6 mbar 0.00 mm 2.9 km/h W 273 0 min 0.0 UV-I 0 W/m 13.8 C 4.8 km/h
09.07.2020 04:48 13.7 C 91 % 1016.5 mbar 0.00 mm 1.9 km/h W 273 0 min 0.0 UV-I 0 W/m 13.7 C 4.8 km/h
09.07.2020 04:46 13.7 C 91 % 1016.5 mbar 0.00 mm 0.0 km/h W 273 0 min 0.0 UV-I 0 W/m 13.7 C 0.0 km/h
09.07.2020 04:44 13.7 C 91 % 1016.5 mbar 0.00 mm 0.0 km/h W 273 0 min 0.0 UV-I 0 W/m 13.7 C 0.0 km/h
09.07.2020 04:42 13.8 C 90 % 1016.6 mbar 0.00 mm 0.0 km/h W 273 0 min 0.0 UV-I 0 W/m 13.8 C 0.0 km/h
09.07.2020 04:40 13.8 C 90 % 1016.6 mbar 0.00 mm 0.1 km/h W 273 0 min 0.0 UV-I 0 W/m 13.8 C 1.6 km/h
09.07.2020 04:38 13.7 C 90 % 1016.6 mbar 0.00 mm 1.4 km/h W 273 0 min 0.0 UV-I 0 W/m 13.7 C 3.2 km/h
09.07.2020 04:36 13.7 C 90 % 1016.6 mbar 0.00 mm 0.2 km/h W 273 0 min 0.0 UV-I 0 W/m 13.7 C 1.6 km/h
09.07.2020 04:34 13.9 C 89 % 1016.5 mbar 0.00 mm 1.3 km/h W 273 0 min 0.0 UV-I 0 W/m 13.9 C 3.2 km/h
09.07.2020 04:32 13.8 C 89 % 1016.5 mbar 0.00 mm 3.1 km/h W 273 0 min 0.0 UV-I 0 W/m 13.8 C 4.8 km/h
09.07.2020 04:30 13.7 C 90 % 1016.6 mbar 0.00 mm 2.7 km/h W 273 0 min 0.0 UV-I 0 W/m 13.7 C 3.2 km/h
09.07.2020 04:28 13.8 C 89 % 1016.6 mbar 0.00 mm 3.3 km/h W 273 0 min 0.0 UV-I 0 W/m 13.8 C 4.8 km/h
09.07.2020 04:26 14.1 C 88 % 1016.6 mbar 0.00 mm 3.6 km/h W 273 0 min 0.0 UV-I 0 W/m 14.1 C 4.8 km/h
09.07.2020 04:24 14.2 C 88 % 1016.5 mbar 0.00 mm 3.1 km/h W 273 0 min 0.0 UV-I 0 W/m 14.2 C 4.8 km/h
09.07.2020 04:22 14.1 C 88 % 1016.5 mbar 0.00 mm 0.8 km/h W 273 0 min 0.0 UV-I 0 W/m 14.1 C 3.2 km/h
09.07.2020 04:20 14.0 C 88 % 1016.5 mbar 0.00 mm 0.0 km/h W 273 0 min 0.0 UV-I 0 W/m 14.0 C 0.0 km/h
09.07.2020 04:18 14.0 C 89 % 1016.5 mbar 0.00 mm 0.3 km/h W 273 0 min 0.0 UV-I 0 W/m 14.0 C 1.6 km/h
09.07.2020 04:16 14.0 C 88 % 1016.6 mbar 0.00 mm 0.6 km/h W 273 0 min 0.0 UV-I 0 W/m 14.0 C 1.6 km/h
09.07.2020 04:14 13.9 C 88 % 1016.5 mbar 0.00 mm 0.4 km/h W 273 0 min 0.0 UV-I 0 W/m 13.9 C 1.6 km/h
09.07.2020 04:12 13.9 C 89 % 1016.6 mbar 0.00 mm 1.6 km/h W 273 0 min 0.0 UV-I 0 W/m 13.9 C 3.2 km/h
09.07.2020 04:10 13.8 C 89 % 1016.6 mbar 0.00 mm 2.8 km/h W 273 0 min 0.0 UV-I 0 W/m 13.8 C 4.8 km/h
09.07.2020 04:08 13.7 C 89 % 1016.6 mbar 0.00 mm 0.8 km/h W 273 0 min 0.0 UV-I 0 W/m 13.7 C 3.2 km/h
09.07.2020 04:06 13.8 C 89 % 1016.6 mbar 0.00 mm 1.1 km/h W 273 0 min 0.0 UV-I 0 W/m 13.8 C 1.6 km/h
09.07.2020 04:04 13.8 C 88 % 1016.6 mbar 0.00 mm 1.6 km/h W 273 0 min 0.0 UV-I 0 W/m 13.8 C 3.2 km/h
09.07.2020 04:02 13.9 C 88 % 1016.6 mbar 0.00 mm 2.5 km/h W 273 0 min 0.0 UV-I 0 W/m 13.9 C 3.2 km/h
09.07.2020 04:00 13.8 C 89 % 1016.6 mbar 0.00 mm 3.4 km/h W 273 0 min 0.0 UV-I 0 W/m 13.8 C 4.8 km/h
09.07.2020 03:58 13.7 C 89 % 1016.6 mbar 0.00 mm 3.6 km/h W 273 0 min 0.0 UV-I 0 W/m 13.7 C 4.8 km/h
09.07.2020 03:56 13.6 C 89 % 1016.6 mbar 0.00 mm 2.2 km/h W 273 0 min 0.0 UV-I 0 W/m 13.6 C 3.2 km/h
09.07.2020 03:54 13.6 C 89 % 1016.7 mbar 0.00 mm 1.8 km/h W 273 0 min 0.0 UV-I 0 W/m 13.6 C 3.2 km/h
09.07.2020 03:52 13.7 C 89 % 1016.7 mbar 0.00 mm 2.4 km/h W 273 0 min 0.0 UV-I 0 W/m 13.7 C 3.2 km/h
09.07.2020 03:50 13.7 C 89 % 1016.7 mbar 0.00 mm 2.8 km/h W 273 0 min 0.0 UV-I 0 W/m 13.7 C 3.2 km/h
09.07.2020 03:48 13.8 C 89 % 1016.7 mbar 0.00 mm 1.8 km/h W 273 0 min 0.0 UV-I 0 W/m 13.8 C 3.2 km/h
09.07.2020 03:46 13.8 C 89 % 1016.7 mbar 0.00 mm 1.4 km/h W 273 0 min 0.0 UV-I 0 W/m 13.8 C 3.2 km/h
09.07.2020 03:44 13.8 C 89 % 1016.7 mbar 0.00 mm 2.2 km/h W 273 0 min 0.0 UV-I 0 W/m 13.8 C 4.8 km/h
09.07.2020 03:42 13.8 C 89 % 1016.7 mbar 0.00 mm 3.0 km/h W 273 0 min 0.0 UV-I 0 W/m 13.8 C 3.2 km/h
09.07.2020 03:40 13.7 C 90 % 1016.7 mbar 0.00 mm 3.1 km/h W 273 0 min 0.0 UV-I 0 W/m 13.7 C 4.8 km/h
09.07.2020 03:38 13.6 C 90 % 1016.7 mbar 0.00 mm 2.6 km/h W 273 0 min 0.0 UV-I 0 W/m 13.6 C 4.8 km/h
09.07.2020 03:36 13.6 C 89 % 1016.7 mbar 0.00 mm 2.0 km/h W 273 0 min 0.0 UV-I 0 W/m 13.6 C 3.2 km/h
09.07.2020 03:34 13.7 C 88 % 1016.7 mbar 0.00 mm 2.1 km/h W 273 0 min 0.0 UV-I 0 W/m 13.7 C 3.2 km/h
09.07.2020 03:32 13.9 C 88 % 1016.8 mbar 0.00 mm 2.5 km/h W 273 0 min 0.0 UV-I 0 W/m 13.9 C 3.2 km/h
09.07.2020 03:30 14.0 C 88 % 1016.8 mbar 0.00 mm 1.8 km/h W 273 0 min 0.0 UV-I 0 W/m 14.0 C 3.2 km/h
09.07.2020 03:28 13.9 C 88 % 1016.8 mbar 0.00 mm 1.8 km/h W 273 0 min 0.0 UV-I 0 W/m 13.9 C 3.2 km/h
09.07.2020 03:26 13.9 C 89 % 1016.9 mbar 0.00 mm 1.5 km/h W 273 0 min 0.0 UV-I 0 W/m 13.9 C 3.2 km/h
09.07.2020 03:24 13.9 C 88 % 1016.8 mbar 0.00 mm 1.2 km/h W 273 0 min 0.0 UV-I 0 W/m 13.9 C 1.6 km/h
09.07.2020 03:22 13.9 C 88 % 1016.8 mbar 0.00 mm 1.6 km/h W 273 0 min 0.0 UV-I 0 W/m 13.9 C 3.2 km/h
09.07.2020 03:20 13.8 C 88 % 1016.8 mbar 0.00 mm 1.7 km/h W 273 0 min 0.0 UV-I 0 W/m 13.8 C 3.2 km/h
09.07.2020 03:18 13.7 C 89 % 1016.8 mbar 0.00 mm 1.7 km/h W 273 0 min 0.0 UV-I 0 W/m 13.7 C 3.2 km/h
09.07.2020 03:16 13.7 C 89 % 1016.9 mbar 0.00 mm 3.1 km/h W 273 0 min 0.0 UV-I 0 W/m 13.7 C 4.8 km/h
09.07.2020 03:14 13.7 C 89 % 1016.9 mbar 0.00 mm 3.0 km/h W 273 0 min 0.0 UV-I 0 W/m 13.7 C 4.8 km/h
09.07.2020 03:12 13.7 C 89 % 1016.9 mbar 0.00 mm 3.2 km/h W 273 0 min 0.0 UV-I 0 W/m 13.7 C 4.8 km/h
09.07.2020 03:10 13.6 C 89 % 1016.9 mbar 0.00 mm 2.4 km/h W 273 0 min 0.0 UV-I 0 W/m 13.6 C 3.2 km/h
09.07.2020 03:08 13.8 C 87 % 1016.9 mbar 0.00 mm 3.5 km/h W 273 0 min 0.0 UV-I 0 W/m 13.8 C 4.8 km/h
09.07.2020 03:06 14.1 C 87 % 1016.9 mbar 0.00 mm 2.8 km/h W 273 0 min 0.0 UV-I 0 W/m 14.1 C 4.8 km/h
09.07.2020 03:04 14.1 C 87 % 1017.0 mbar 0.00 mm 3.3 km/h W 273 0 min 0.0 UV-I 0 W/m 14.1 C 4.8 km/h
09.07.2020 03:02 14.0 C 88 % 1017.0 mbar 0.00 mm 3.6 km/h W 273 0 min 0.0 UV-I 0 W/m 14.0 C 4.8 km/h
09.07.2020 03:00 14.1 C 88 % 1017.0 mbar 0.00 mm 2.7 km/h W 273 0 min 0.0 UV-I 0 W/m 14.1 C 3.2 km/h
09.07.2020 02:58 14.1 C 88 % 1017.0 mbar 0.00 mm 3.5 km/h W 273 0 min 0.0 UV-I 0 W/m 14.1 C 4.8 km/h
09.07.2020 02:56 13.9 C 88 % 1017.0 mbar 0.00 mm 3.6 km/h W 273 0 min 0.0 UV-I 0 W/m 13.9 C 4.8 km/h
09.07.2020 02:54 13.9 C 88 % 1017.0 mbar 0.00 mm 3.4 km/h W 273 0 min 0.0 UV-I 0 W/m 13.9 C 4.8 km/h
09.07.2020 02:52 14.2 C 87 % 1017.1 mbar 0.00 mm 2.4 km/h W 273 0 min 0.0 UV-I 0 W/m 14.2 C 3.2 km/h
09.07.2020 02:50 14.3 C 87 % 1017.0 mbar 0.00 mm 3.4 km/h W 273 0 min 0.0 UV-I 0 W/m 14.3 C 4.8 km/h
09.07.2020 02:48 14.3 C 86 % 1017.1 mbar 0.00 mm 3.5 km/h W 273 0 min 0.0 UV-I 0 W/m 14.3 C 4.8 km/h
09.07.2020 02:46 14.3 C 86 % 1017.1 mbar 0.00 mm 3.7 km/h W 273 0 min 0.0 UV-I 0 W/m 14.3 C 4.8 km/h
09.07.2020 02:44 14.2 C 87 % 1017.1 mbar 0.00 mm 3.4 km/h W 273 0 min 0.0 UV-I 0 W/m 14.2 C 4.8 km/h
09.07.2020 02:42 14.2 C 87 % 1017.1 mbar 0.00 mm 3.2 km/h W 273 0 min 0.0 UV-I 0 W/m 14.2 C 3.2 km/h
09.07.2020 02:40 14.2 C 87 % 1017.1 mbar 0.00 mm 2.3 km/h W 273 0 min 0.0 UV-I 0 W/m 14.2 C 3.2 km/h
09.07.2020 02:38 14.2 C 87 % 1017.1 mbar 0.00 mm 2.8 km/h W 273 0 min 0.0 UV-I 0 W/m 14.2 C 4.8 km/h
09.07.2020 02:36 14.2 C 87 % 1017.1 mbar 0.00 mm 2.7 km/h W 273 0 min 0.0 UV-I 0 W/m 14.2 C 4.8 km/h
09.07.2020 02:34 14.2 C 87 % 1017.1 mbar 0.00 mm 2.2 km/h W 273 0 min 0.0 UV-I 0 W/m 14.2 C 3.2 km/h
09.07.2020 02:32 14.3 C 87 % 1017.1 mbar 0.00 mm 1.5 km/h W 273 0 min 0.0 UV-I 0 W/m 14.3 C 3.2 km/h
09.07.2020 02:30 14.4 C 87 % 1017.1 mbar 0.00 mm 2.8 km/h W 273 0 min 0.0 UV-I 0 W/m 14.4 C 3.2 km/h
09.07.2020 02:28 14.4 C 87 % 1017.1 mbar 0.00 mm 3.3 km/h W 273 0 min 0.0 UV-I 0 W/m 14.4 C 4.8 km/h
09.07.2020 02:26 14.4 C 87 % 1017.2 mbar 0.00 mm 2.6 km/h W 273 0 min 0.0 UV-I 0 W/m 14.4 C 3.2 km/h
09.07.2020 02:24 14.4 C 87 % 1017.2 mbar 0.00 mm 2.5 km/h W 273 0 min 0.0 UV-I 0 W/m 14.4 C 3.2 km/h
09.07.2020 02:22 14.3 C 87 % 1017.2 mbar 0.00 mm 3.0 km/h W 273 0 min 0.0 UV-I 0 W/m 14.3 C 3.2 km/h
09.07.2020 02:20 14.2 C 88 % 1017.2 mbar 0.00 mm 2.6 km/h W 273 0 min 0.0 UV-I 0 W/m 14.2 C 3.2 km/h
09.07.2020 02:18 14.1 C 88 % 1017.2 mbar 0.00 mm 2.4 km/h W 273 0 min 0.0 UV-I 0 W/m 14.1 C 3.2 km/h
09.07.2020 02:16 14.2 C 88 % 1017.2 mbar 0.00 mm 2.5 km/h W 273 0 min 0.0 UV-I 0 W/m 14.2 C 3.2 km/h
09.07.2020 02:14 14.2 C 87 % 1017.3 mbar 0.00 mm 2.6 km/h W 273 0 min 0.0 UV-I 0 W/m 14.2 C 4.8 km/h
09.07.2020 02:12 14.3 C 87 % 1017.3 mbar 0.00 mm 3.4 km/h W 273 0 min 0.0 UV-I 0 W/m 14.3 C 4.8 km/h
09.07.2020 02:10 14.3 C 87 % 1017.4 mbar 0.00 mm 3.8 km/h W 273 0 min 0.0 UV-I 0 W/m 14.3 C 4.8 km/h
09.07.2020 02:08 14.2 C 87 % 1017.3 mbar 0.00 mm 3.2 km/h W 273 0 min 0.0 UV-I 0 W/m 14.2 C 3.2 km/h
09.07.2020 02:06 14.2 C 87 % 1017.4 mbar 0.00 mm 3.0 km/h W 273 0 min 0.0 UV-I 0 W/m 14.2 C 3.2 km/h
09.07.2020 02:04 14.2 C 87 % 1017.4 mbar 0.00 mm 2.2 km/h W 273 0 min 0.0 UV-I 0 W/m 14.2 C 3.2 km/h
09.07.2020 02:02 14.4 C 87 % 1017.4 mbar 0.00 mm 2.2 km/h W 273 0 min 0.0 UV-I 0 W/m 14.4 C 3.2 km/h
09.07.2020 02:00 14.4 C 86 % 1017.5 mbar 0.00 mm 2.9 km/h W 273 0 min 0.0 UV-I 0 W/m 14.4 C 3.2 km/h
09.07.2020 01:58 14.5 C 86 % 1017.4 mbar 0.00 mm 3.5 km/h W 273 0 min 0.0 UV-I 0 W/m 14.5 C 4.8 km/h
09.07.2020 01:56 14.6 C 86 % 1017.4 mbar 0.00 mm 3.9 km/h W 273 0 min 0.0 UV-I 0 W/m 14.6 C 4.8 km/h
09.07.2020 01:54 14.5 C 86 % 1017.4 mbar 0.00 mm 3.8 km/h W 273 0 min 0.0 UV-I 0 W/m 14.5 C 4.8 km/h
09.07.2020 01:52 14.6 C 86 % 1017.5 mbar 0.00 mm 3.3 km/h W 273 0 min 0.0 UV-I 0 W/m 14.6 C 4.8 km/h
09.07.2020 01:50 14.6 C 86 % 1017.4 mbar 0.00 mm 3.9 km/h W 273 0 min 0.0 UV-I 0 W/m 14.6 C 4.8 km/h
09.07.2020 01:48 14.5 C 86 % 1017.5 mbar 0.00 mm 4.1 km/h W 273 0 min 0.0 UV-I 0 W/m 14.5 C 4.8 km/h
09.07.2020 01:46 14.6 C 86 % 1017.5 mbar 0.00 mm 4.0 km/h W 273 0 min 0.0 UV-I 0 W/m 14.6 C 4.8 km/h
09.07.2020 01:44 14.7 C 86 % 1017.5 mbar 0.00 mm 2.3 km/h W 273 0 min 0.0 UV-I 0 W/m 14.7 C 3.2 km/h
09.07.2020 01:42 14.7 C 86 % 1017.5 mbar 0.00 mm 1.8 km/h W 273 0 min 0.0 UV-I 0 W/m 14.7 C 3.2 km/h
09.07.2020 01:40 14.6 C 86 % 1017.5 mbar 0.00 mm 3.2 km/h W 273 0 min 0.0 UV-I 0 W/m 14.6 C 4.8 km/h
09.07.2020 01:38 14.6 C 87 % 1017.5 mbar 0.00 mm 4.3 km/h W 273 0 min 0.0 UV-I 0 W/m 14.6 C 4.8 km/h
09.07.2020 01:36 14.5 C 87 % 1017.5 mbar 0.00 mm 3.7 km/h W 273 0 min 0.0 UV-I 0 W/m 14.5 C 4.8 km/h
09.07.2020 01:34 14.6 C 87 % 1017.5 mbar 0.00 mm 3.4 km/h W 273 0 min 0.0 UV-I 0 W/m 14.6 C 4.8 km/h
09.07.2020 01:32 14.7 C 87 % 1017.5 mbar 0.00 mm 3.7 km/h W 273 0 min 0.0 UV-I 0 W/m 14.7 C 4.8 km/h
09.07.2020 01:30 14.7 C 86 % 1017.5 mbar 0.00 mm 3.6 km/h W 273 0 min 0.0 UV-I 0 W/m 14.7 C 4.8 km/h
09.07.2020 01:28 14.8 C 85 % 1017.6 mbar 0.00 mm 2.9 km/h W 273 0 min 0.0 UV-I 0 W/m 14.8 C 3.2 km/h
09.07.2020 01:26 15.0 C 85 % 1017.6 mbar 0.00 mm 2.1 km/h W 273 0 min 0.0 UV-I 0 W/m 15.0 C 3.2 km/h
09.07.2020 01:24 14.9 C 86 % 1017.5 mbar 0.00 mm 2.8 km/h W 273 0 min 0.0 UV-I 0 W/m 14.9 C 3.2 km/h
09.07.2020 01:22 14.8 C 86 % 1017.6 mbar 0.00 mm 3.4 km/h W 273 0 min 0.0 UV-I 0 W/m 14.8 C 4.8 km/h
09.07.2020 01:20 14.7 C 87 % 1017.6 mbar 0.00 mm 2.6 km/h W 273 0 min 0.0 UV-I 0 W/m 14.7 C 3.2 km/h
09.07.2020 01:18 14.7 C 86 % 1017.6 mbar 0.00 mm 2.9 km/h W 273 0 min 0.0 UV-I 0 W/m 14.7 C 3.2 km/h
09.07.2020 01:16 14.8 C 86 % 1017.6 mbar 0.00 mm 1.9 km/h W 273 0 min 0.0 UV-I 0 W/m 14.8 C 3.2 km/h
09.07.2020 01:14 14.8 C 86 % 1017.6 mbar 0.00 mm 1.5 km/h W 273 0 min 0.0 UV-I 0 W/m 14.8 C 3.2 km/h
09.07.2020 01:12 14.9 C 85 % 1017.6 mbar 0.00 mm 0.2 km/h W 273 0 min 0.0 UV-I 0 W/m 14.9 C 1.6 km/h
09.07.2020 01:10 14.9 C 86 % 1017.6 mbar 0.00 mm 2.0 km/h W 273 0 min 0.0 UV-I 0 W/m 14.9 C 3.2 km/h
09.07.2020 01:08 14.9 C 86 % 1017.6 mbar 0.00 mm 4.5 km/h W 273 0 min 0.0 UV-I 0 W/m 14.9 C 6.4 km/h
09.07.2020 01:06 15.0 C 86 % 1017.6 mbar 0.00 mm 4.0 km/h W 273 0 min 0.0 UV-I 0 W/m 15.0 C 4.8 km/h
09.07.2020 01:04 15.2 C 85 % 1017.5 mbar 0.00 mm 2.5 km/h W 273 0 min 0.0 UV-I 0 W/m 15.2 C 3.2 km/h
09.07.2020 01:02 15.1 C 85 % 1017.6 mbar 0.00 mm 2.0 km/h W 273 0 min 0.0 UV-I 0 W/m 15.1 C 3.2 km/h
09.07.2020 01:00 15.1 C 85 % 1017.6 mbar 0.00 mm 2.1 km/h W 273 0 min 0.0 UV-I 0 W/m 15.1 C 3.2 km/h
09.07.2020 00:58 14.8 C 86 % 1017.6 mbar 0.00 mm 2.9 km/h W 273 0 min 0.0 UV-I 0 W/m 14.8 C 4.8 km/h
09.07.2020 00:56 14.7 C 86 % 1017.6 mbar 0.00 mm 4.2 km/h W 274 0 min 0.0 UV-I 0 W/m 14.7 C 6.4 km/h
09.07.2020 00:54 14.5 C 87 % 1017.6 mbar 0.00 mm 3.3 km/h W 266 0 min 0.0 UV-I 0 W/m 14.5 C 4.8 km/h
09.07.2020 00:52 14.5 C 86 % 1017.6 mbar 0.00 mm 3.2 km/h W-SW 247 0 min 0.0 UV-I 0 W/m 14.5 C 3.2 km/h
09.07.2020 00:50 14.7 C 86 % 1017.6 mbar 0.00 mm 2.7 km/h W-SW 247 0 min 0.0 UV-I 0 W/m 14.7 C 3.2 km/h
09.07.2020 00:48 14.8 C 86 % 1017.6 mbar 0.00 mm 3.3 km/h W-SW 247 0 min 0.0 UV-I 0 W/m 14.8 C 4.8 km/h
09.07.2020 00:46 14.9 C 85 % 1017.6 mbar 0.00 mm 3.8 km/h W-SW 247 0 min 0.0 UV-I 0 W/m 14.9 C 4.8 km/h
09.07.2020 00:44 14.9 C 85 % 1017.7 mbar 0.00 mm 4.2 km/h W-SW 247 0 min 0.0 UV-I 0 W/m 14.9 C 4.8 km/h
09.07.2020 00:42 14.7 C 85 % 1017.6 mbar 0.00 mm 2.7 km/h W-SW 247 0 min 0.0 UV-I 0 W/m 14.7 C 4.8 km/h
09.07.2020 00:40 14.8 C 85 % 1017.7 mbar 0.00 mm 2.6 km/h W-SW 247 0 min 0.0 UV-I 0 W/m 14.8 C 3.2 km/h
09.07.2020 00:38 15.1 C 84 % 1017.7 mbar 0.00 mm 2.2 km/h W-SW 247 0 min 0.0 UV-I 0 W/m 15.1 C 3.2 km/h
09.07.2020 00:36 15.1 C 84 % 1017.7 mbar 0.00 mm 2.9 km/h W-SW 247 0 min 0.0 UV-I 0 W/m 15.1 C 3.2 km/h
09.07.2020 00:34 15.2 C 85 % 1017.7 mbar 0.00 mm 3.4 km/h W-SW 247 0 min 0.0 UV-I 0 W/m 15.2 C 4.8 km/h
09.07.2020 00:32 15.2 C 85 % 1017.6 mbar 0.00 mm 2.2 km/h W-SW 247 0 min 0.0 UV-I 0 W/m 15.2 C 3.2 km/h
09.07.2020 00:30 15.2 C 85 % 1017.6 mbar 0.00 mm 1.8 km/h W-SW 247 0 min 0.0 UV-I 0 W/m 15.2 C 3.2 km/h
09.07.2020 00:28 15.3 C 84 % 1017.6 mbar 0.00 mm 2.7 km/h W-SW 247 0 min 0.0 UV-I 0 W/m 15.3 C 4.8 km/h
09.07.2020 00:26 15.4 C 84 % 1017.6 mbar 0.00 mm 3.8 km/h W-SW 247 0 min 0.0 UV-I 0 W/m 15.4 C 4.8 km/h
09.07.2020 00:24 15.6 C 83 % 1017.6 mbar 0.00 mm 3.9 km/h W-SW 247 0 min 0.0 UV-I 0 W/m 15.6 C 4.8 km/h
09.07.2020 00:22 15.6 C 82 % 1017.6 mbar 0.00 mm 3.4 km/h W-SW 247 0 min 0.0 UV-I 0 W/m 15.6 C 4.8 km/h
09.07.2020 00:20 15.6 C 82 % 1017.6 mbar 0.00 mm 2.5 km/h W-SW 251 0 min 0.0 UV-I 0 W/m 15.6 C 3.2 km/h
09.07.2020 00:18 15.6 C 82 % 1017.6 mbar 0.00 mm 2.6 km/h W-SW 252 0 min 0.0 UV-I 0 W/m 15.6 C 3.2 km/h
09.07.2020 00:16 15.4 C 83 % 1017.5 mbar 0.00 mm 3.7 km/h W-SW 252 0 min 0.0 UV-I 0 W/m 15.4 C 4.8 km/h
09.07.2020 00:14 15.4 C 83 % 1017.5 mbar 0.00 mm 3.1 km/h W-SW 252 0 min 0.0 UV-I 0 W/m 15.4 C 4.8 km/h
09.07.2020 00:12 15.4 C 83 % 1017.5 mbar 0.00 mm 2.6 km/h W-SW 252 0 min 0.0 UV-I 0 W/m 15.4 C 4.8 km/h
09.07.2020 00:10 15.5 C 83 % 1017.5 mbar 0.00 mm 2.0 km/h W-SW 248 0 min 0.0 UV-I 0 W/m 15.5 C 3.2 km/h
09.07.2020 00:08 15.6 C 83 % 1017.5 mbar 0.00 mm 2.5 km/h W-SW 248 0 min 0.0 UV-I 0 W/m 15.6 C 3.2 km/h
09.07.2020 00:06 15.7 C 83 % 1017.5 mbar 0.00 mm 1.6 km/h W-SW 248 0 min 0.0 UV-I 0 W/m 15.7 C 3.2 km/h
09.07.2020 00:04 15.5 C 83 % 1017.5 mbar 0.00 mm 1.0 km/h W-SW 248 0 min 0.0 UV-I 0 W/m 15.5 C 1.6 km/h
09.07.2020 00:02 15.4 C 84 % 1017.5 mbar 0.00 mm 0.9 km/h W-SW 248 0 min 0.0 UV-I 0 W/m 15.4 C 1.6 km/h
09.07.2020 00:00 15.3 C 85 % 1017.6 mbar 0.00 mm 2.2 km/h W-SW 248 0 min 0.0 UV-I 0 W/m 15.3 C 3.2 km/h
08.07.2020 23:58 15.3 C 84 % 1017.6 mbar 0.00 mm 1.4 km/h W-SW 248 0 min 0.0 UV-I 0 W/m 15.3 C 3.2 km/h
08.07.2020 23:56 15.4 C 83 % 1017.5 mbar 0.00 mm 1.9 km/h W-SW 248 0 min 0.0 UV-I 0 W/m 15.4 C 3.2 km/h
08.07.2020 23:54 15.8 C 82 % 1017.5 mbar 0.00 mm 2.3 km/h W-SW 248 0 min 0.0 UV-I 0 W/m 15.8 C 3.2 km/h
08.07.2020 23:52 15.9 C 81 % 1017.5 mbar 0.00 mm 3.2 km/h W-SW 248 0 min 0.0 UV-I 0 W/m 15.9 C 4.8 km/h
08.07.2020 23:50 16.2 C 81 % 1017.5 mbar 0.00 mm 3.9 km/h W-SW 248 0 min 0.0 UV-I 0 W/m 16.2 C 4.8 km/h
08.07.2020 23:48 16.3 C 80 % 1017.5 mbar 0.00 mm 2.9 km/h W-SW 248 0 min 0.0 UV-I 0 W/m 16.3 C 4.8 km/h
08.07.2020 23:46 16.1 C 80 % 1017.5 mbar 0.00 mm 3.7 km/h W-SW 248 0 min 0.0 UV-I 0 W/m 16.1 C 4.8 km/h
08.07.2020 23:44 16.0 C 81 % 1017.5 mbar 0.00 mm 3.2 km/h W-SW 248 0 min 0.0 UV-I 0 W/m 16.0 C 4.8 km/h
08.07.2020 23:42 15.9 C 81 % 1017.5 mbar 0.00 mm 3.9 km/h W-SW 248 0 min 0.0 UV-I 0 W/m 15.9 C 4.8 km/h
08.07.2020 23:40 16.1 C 81 % 1017.5 mbar 0.00 mm 3.1 km/h W-SW 248 0 min 0.0 UV-I 0 W/m 16.1 C 3.2 km/h
08.07.2020 23:38 16.1 C 80 % 1017.4 mbar 0.00 mm 3.3 km/h W-SW 248 0 min 0.0 UV-I 0 W/m 16.1 C 4.8 km/h
08.07.2020 23:36 16.2 C 80 % 1017.5 mbar 0.00 mm 3.8 km/h W-SW 248 0 min 0.0 UV-I 0 W/m 16.2 C 4.8 km/h
08.07.2020 23:34 16.1 C 81 % 1017.5 mbar 0.00 mm 4.4 km/h W-SW 248 0 min 0.0 UV-I 0 W/m 16.1 C 4.8 km/h
08.07.2020 23:32 16.1 C 81 % 1017.5 mbar 0.00 mm 3.1 km/h W-SW 248 0 min 0.0 UV-I 0 W/m 16.1 C 4.8 km/h
08.07.2020 23:30 16.1 C 82 % 1017.5 mbar 0.00 mm 2.8 km/h W-SW 248 0 min 0.0 UV-I 0 W/m 16.1 C 3.2 km/h
08.07.2020 23:28 15.9 C 82 % 1017.5 mbar 0.00 mm 3.1 km/h W-SW 248 0 min 0.0 UV-I 0 W/m 15.9 C 4.8 km/h
08.07.2020 23:26 15.9 C 82 % 1017.4 mbar 0.00 mm 2.9 km/h W-SW 248 0 min 0.0 UV-I 0 W/m 15.9 C 4.8 km/h
08.07.2020 23:24 16.2 C 82 % 1017.5 mbar 0.00 mm 1.8 km/h W-SW 248 0 min 0.0 UV-I 0 W/m 16.2 C 3.2 km/h
08.07.2020 23:22 16.3 C 82 % 1017.5 mbar 0.00 mm 2.4 km/h W-SW 248 0 min 0.0 UV-I 0 W/m 16.3 C 3.2 km/h
08.07.2020 23:20 16.3 C 81 % 1017.5 mbar 0.00 mm 4.1 km/h W-SW 248 0 min 0.0 UV-I 0 W/m 16.3 C 6.4 km/h
08.07.2020 23:18 16.2 C 82 % 1017.5 mbar 0.00 mm 3.0 km/h W-SW 248 0 min 0.0 UV-I 0 W/m 16.2 C 4.8 km/h
08.07.2020 23:16 16.4 C 81 % 1017.4 mbar 0.00 mm 1.4 km/h W-SW 248 0 min 0.0 UV-I 0 W/m 16.4 C 1.6 km/h
08.07.2020 23:14 16.4 C 80 % 1017.4 mbar 0.00 mm 1.8 km/h W-SW 248 0 min 0.0 UV-I 0 W/m 16.4 C 3.2 km/h
08.07.2020 23:12 16.5 C 80 % 1017.4 mbar 0.00 mm 1.8 km/h W-SW 248 0 min 0.0 UV-I 0 W/m 16.5 C 3.2 km/h
08.07.2020 23:10 16.4 C 80 % 1017.4 mbar 0.00 mm 1.9 km/h W-SW 248 0 min 0.0 UV-I 0 W/m 16.4 C 3.2 km/h
08.07.2020 23:08 16.3 C 81 % 1017.4 mbar 0.00 mm 2.4 km/h W-SW 248 0 min 0.0 UV-I 0 W/m 16.3 C 3.2 km/h
08.07.2020 23:06 16.2 C 82 % 1017.4 mbar 0.00 mm 1.9 km/h W-SW 248 0 min 0.0 UV-I 0 W/m 16.2 C 3.2 km/h
08.07.2020 23:04 16.1 C 82 % 1017.3 mbar 0.00 mm 1.6 km/h W-SW 248 0 min 0.0 UV-I 0 W/m 16.1 C 3.2 km/h
08.07.2020 23:02 16.2 C 82 % 1017.3 mbar 0.00 mm 2.9 km/h W-SW 248 0 min 0.0 UV-I 0 W/m 16.2 C 4.8 km/h
08.07.2020 23:00 16.6 C 81 % 1017.3 mbar 0.00 mm 3.8 km/h W-SW 248 0 min 0.0 UV-I 0 W/m 16.6 C 4.8 km/h
08.07.2020 22:58 16.8 C 80 % 1017.3 mbar 0.00 mm 3.5 km/h W-SW 248 0 min 0.0 UV-I 0 W/m 16.8 C 4.8 km/h
08.07.2020 22:56 16.9 C 80 % 1017.3 mbar 0.00 mm 3.6 km/h W-SW 248 0 min 0.0 UV-I 0 W/m 16.9 C 4.8 km/h
08.07.2020 22:54 16.8 C 80 % 1017.3 mbar 0.00 mm 4.4 km/h W-SW 248 0 min 0.0 UV-I 0 W/m 16.8 C 4.8 km/h
08.07.2020 22:52 16.8 C 79 % 1017.3 mbar 0.00 mm 4.2 km/h W-SW 248 0 min 0.0 UV-I 0 W/m 16.8 C 4.8 km/h
08.07.2020 22:50 16.7 C 79 % 1017.3 mbar 0.00 mm 1.6 km/h W-SW 248 0 min 0.0 UV-I 0 W/m 16.7 C 4.8 km/h
08.07.2020 22:48 16.8 C 80 % 1017.3 mbar 0.00 mm 1.3 km/h W-SW 248 0 min 0.0 UV-I 0 W/m 16.8 C 3.2 km/h
08.07.2020 22:46 17.2 C 78 % 1017.2 mbar 0.00 mm 1.6 km/h W-SW 248 0 min 0.0 UV-I 0 W/m 17.2 C 3.2 km/h
08.07.2020 22:44 17.3 C 77 % 1017.3 mbar 0.00 mm 2.0 km/h W 278 0 min 0.0 UV-I 0 W/m 17.3 C 3.2 km/h
08.07.2020 22:42 17.3 C 77 % 1017.3 mbar 0.00 mm 4.0 km/h W 278 0 min 0.0 UV-I 0 W/m 17.3 C 4.8 km/h
08.07.2020 22:40 17.2 C 78 % 1017.3 mbar 0.00 mm 2.6 km/h S-SW 208 0 min 0.0 UV-I 0 W/m 17.2 C 3.2 km/h
08.07.2020 22:38 16.7 C 80 % 1017.2 mbar 0.00 mm 2.8 km/h S-SW 208 0 min 0.0 UV-I 0 W/m 16.7 C 3.2 km/h
08.07.2020 22:36 16.3 C 82 % 1017.2 mbar 0.00 mm 2.4 km/h S-SW 208 0 min 0.0 UV-I 0 W/m 16.3 C 4.8 km/h
08.07.2020 22:34 16.5 C 81 % 1017.2 mbar 0.00 mm 2.4 km/h S-SO 167 0 min 0.0 UV-I 0 W/m 16.5 C 3.2 km/h
08.07.2020 22:32 16.9 C 80 % 1017.2 mbar 0.00 mm 1.6 km/h S-SO 167 0 min 0.0 UV-I 0 W/m 16.9 C 3.2 km/h
08.07.2020 22:30 17.4 C 79 % 1017.2 mbar 0.00 mm 3.1 km/h S-SO 167 0 min 0.0 UV-I 0 W/m 17.4 C 4.8 km/h
08.07.2020 22:28 17.6 C 78 % 1017.2 mbar 0.00 mm 2.3 km/h S-SO 160 0 min 0.0 UV-I 0 W/m 17.6 C 3.2 km/h
08.07.2020 22:26 17.6 C 79 % 1017.2 mbar 0.00 mm 2.2 km/h S-SO 148 0 min 0.0 UV-I 0 W/m 17.6 C 3.2 km/h
08.07.2020 22:24 17.5 C 78 % 1017.2 mbar 0.00 mm 4.0 km/h S-SO 148 0 min 0.0 UV-I 0 W/m 17.5 C 6.4 km/h
08.07.2020 22:22 17.6 C 78 % 1017.1 mbar 0.00 mm 3.9 km/h O-SO 108 0 min 0.0 UV-I 0 W/m 17.6 C 4.8 km/h
08.07.2020 22:20 17.5 C 78 % 1017.2 mbar 0.00 mm 3.8 km/h O-SO 103 0 min 0.0 UV-I 0 W/m 17.5 C 4.8 km/h
08.07.2020 22:18 17.7 C 76 % 1017.2 mbar 0.00 mm 2.9 km/h O-SO 102 0 min 0.0 UV-I 0 W/m 17.7 C 4.8 km/h
08.07.2020 22:16 17.9 C 75 % 1017.1 mbar 0.00 mm 1.0 km/h W-SW 247 0 min 0.0 UV-I 0 W/m 17.9 C 3.2 km/h
08.07.2020 22:14 18.1 C 73 % 1017.1 mbar 0.00 mm 2.9 km/h W-SW 247 0 min 0.0 UV-I 0 W/m 18.1 C 4.8 km/h
08.07.2020 22:12 18.0 C 74 % 1017.1 mbar 0.00 mm 4.2 km/h W-SW 237 0 min 0.0 UV-I 0 W/m 18.0 C 6.4 km/h
08.07.2020 22:10 17.9 C 75 % 1017.0 mbar 0.00 mm 6.2 km/h W 266 0 min 0.0 UV-I 0 W/m 17.9 C 9.7 km/h
08.07.2020 22:08 17.8 C 75 % 1016.9 mbar 0.00 mm 6.0 km/h W 268 0 min 0.0 UV-I 0 W/m 17.8 C 9.7 km/h
08.07.2020 22:06 17.7 C 76 % 1017.0 mbar 0.00 mm 5.3 km/h W-SW 255 0 min 0.0 UV-I 0 W/m 17.7 C 6.4 km/h
08.07.2020 22:04 17.8 C 76 % 1016.9 mbar 0.00 mm 5.6 km/h W-SW 244 0 min 0.0 UV-I 0 W/m 17.8 C 6.4 km/h
08.07.2020 22:02 17.8 C 76 % 1017.0 mbar 0.00 mm 4.9 km/h W-SW 237 0 min 0.0 UV-I 0 W/m 17.8 C 6.4 km/h
08.07.2020 22:00 18.0 C 76 % 1017.0 mbar 0.00 mm 4.2 km/h W-SW 238 0 min 0.0 UV-I 0 W/m 18.0 C 6.4 km/h
08.07.2020 21:58 18.1 C 75 % 1016.9 mbar 0.00 mm 4.5 km/h W 259 0 min 0.0 UV-I 0 W/m 18.1 C 6.4 km/h
08.07.2020 21:56 18.3 C 76 % 1017.1 mbar 0.00 mm 5.7 km/h W-SW 238 0 min 0.0 UV-I 0 W/m 18.3 C 6.4 km/h
08.07.2020 21:54 18.6 C 76 % 1016.9 mbar 0.00 mm 3.9 km/h SW 234 0 min 0.0 UV-I 0 W/m 18.6 C 6.4 km/h
08.07.2020 21:52 18.6 C 74 % 1016.8 mbar 0.00 mm 2.8 km/h W-SW 246 0 min 0.0 UV-I 0 W/m 18.6 C 3.2 km/h
08.07.2020 21:50 18.4 C 74 % 1016.8 mbar 0.00 mm 0.5 km/h W-SW 246 0 min 0.0 UV-I 0 W/m 18.4 C 3.2 km/h
08.07.2020 21:48 18.2 C 76 % 1016.8 mbar 0.00 mm 0.2 km/h W-SW 246 0 min 0.0 UV-I 0 W/m 18.2 C 1.6 km/h
08.07.2020 21:46 18.3 C 77 % 1016.7 mbar 0.00 mm 2.6 km/h W-SW 246 0 min 0.0 UV-I 0 W/m 18.3 C 4.8 km/h
08.07.2020 21:44 18.3 C 75 % 1016.7 mbar 0.00 mm 1.5 km/h W-SW 246 0 min 0.0 UV-I 0 W/m 18.3 C 3.2 km/h
08.07.2020 21:42 18.2 C 77 % 1016.6 mbar 0.00 mm 0.0 km/h W-SW 246 0 min 0.0 UV-I 0 W/m 18.2 C 0.0 km/h
08.07.2020 21:40 18.4 C 77 % 1016.6 mbar 0.00 mm 0.0 km/h W-SW 246 0 min 0.0 UV-I 0 W/m 18.4 C 0.0 km/h
08.07.2020 21:38 18.5 C 75 % 1016.6 mbar 0.00 mm 0.3 km/h W-SW 246 0 min 0.0 UV-I 0 W/m 18.5 C 1.6 km/h
08.07.2020 21:36 18.3 C 77 % 1016.5 mbar 0.00 mm 2.9 km/h W-SW 246 0 min 0.0 UV-I 0 W/m 18.3 C 4.8 km/h
08.07.2020 21:34 18.4 C 77 % 1016.5 mbar 0.00 mm 2.4 km/h W-SW 246 0 min 0.0 UV-I 5 W/m 18.4 C 4.8 km/h
08.07.2020 21:32 18.6 C 75 % 1016.5 mbar 0.00 mm 3.1 km/h W-SW 246 0 min 0.0 UV-I 5 W/m 18.6 C 4.8 km/h
08.07.2020 21:30 18.5 C 76 % 1016.3 mbar 0.00 mm 3.5 km/h W-SW 246 0 min 0.0 UV-I 7 W/m 18.5 C 4.8 km/h
08.07.2020 21:28 18.5 C 76 % 1016.3 mbar 0.00 mm 3.1 km/h W-SW 245 0 min 0.0 UV-I 7 W/m 18.5 C 4.8 km/h
08.07.2020 21:26 18.6 C 75 % 1016.3 mbar 0.00 mm 1.3 km/h SW 236 0 min 0.0 UV-I 9 W/m 18.6 C 3.2 km/h
08.07.2020 21:24 18.5 C 75 % 1016.3 mbar 0.00 mm 2.0 km/h SW 236 0 min 0.0 UV-I 9 W/m 18.5 C 3.2 km/h
08.07.2020 21:22 18.4 C 75 % 1016.4 mbar 0.00 mm 2.0 km/h SW 236 0 min 0.0 UV-I 9 W/m 18.4 C 3.2 km/h
08.07.2020 21:20 18.1 C 76 % 1016.4 mbar 0.00 mm 2.6 km/h SW 236 0 min 0.0 UV-I 11 W/m 18.1 C 3.2 km/h
08.07.2020 21:18 18.1 C 80 % 1016.4 mbar 0.00 mm 2.7 km/h SW 236 0 min 0.0 UV-I 12 W/m 18.1 C 3.2 km/h
08.07.2020 21:16 18.4 C 78 % 1016.3 mbar 0.00 mm 3.4 km/h SW 236 0 min 0.0 UV-I 12 W/m 18.4 C 4.8 km/h
08.07.2020 21:14 18.7 C 76 % 1016.3 mbar 0.00 mm 3.5 km/h SW 235 0 min 0.0 UV-I 12 W/m 18.7 C 4.8 km/h
08.07.2020 21:12 18.7 C 77 % 1016.3 mbar 0.00 mm 3.4 km/h SW 235 0 min 0.0 UV-I 12 W/m 18.7 C 4.8 km/h
08.07.2020 21:10 18.7 C 75 % 1016.4 mbar 0.00 mm 2.2 km/h SW 235 0 min 0.0 UV-I 12 W/m 18.7 C 4.8 km/h
08.07.2020 21:08 18.5 C 76 % 1016.3 mbar 0.00 mm 2.9 km/h SW 235 0 min 0.0 UV-I 12 W/m 18.5 C 4.8 km/h
08.07.2020 21:06 18.4 C 76 % 1016.3 mbar 0.00 mm 3.3 km/h SW 235 0 min 0.0 UV-I 12 W/m 18.4 C 4.8 km/h
08.07.2020 21:04 18.7 C 76 % 1016.3 mbar 0.00 mm 1.9 km/h SW 235 0 min 0.0 UV-I 12 W/m 18.7 C 4.8 km/h
08.07.2020 21:02 19.2 C 75 % 1016.2 mbar 0.00 mm 3.0 km/h W-SW 256 0 min 0.0 UV-I 12 W/m 19.2 C 4.8 km/h
08.07.2020 21:00 19.3 C 73 % 1016.2 mbar 0.00 mm 3.3 km/h W-SW 256 0 min 0.0 UV-I 12 W/m 19.3 C 4.8 km/h
08.07.2020 20:58 19.3 C 72 % 1016.2 mbar 0.00 mm 4.0 km/h W-SW 256 0 min 0.0 UV-I 12 W/m 19.3 C 6.4 km/h
08.07.2020 20:56 19.1 C 75 % 1016.2 mbar 0.00 mm 4.2 km/h W-SW 248 0 min 0.0 UV-I 12 W/m 19.1 C 4.8 km/h
08.07.2020 20:54 18.9 C 75 % 1016.2 mbar 0.00 mm 3.9 km/h W-SW 247 0 min 0.0 UV-I 12 W/m 18.9 C 4.8 km/h
08.07.2020 20:52 18.8 C 76 % 1016.2 mbar 0.00 mm 4.0 km/h W-SW 244 0 min 0.0 UV-I 14 W/m 18.8 C 4.8 km/h
08.07.2020 20:50 19.0 C 75 % 1016.1 mbar 0.00 mm 2.4 km/h W-SW 244 0 min 0.0 UV-I 14 W/m 19.0 C 3.2 km/h
08.07.2020 20:48 19.1 C 75 % 1016.1 mbar 0.00 mm 2.8 km/h W-SW 244 0 min 0.0 UV-I 14 W/m 19.1 C 4.8 km/h
08.07.2020 20:46 19.6 C 75 % 1016.1 mbar 0.00 mm 2.8 km/h W-SW 244 0 min 0.0 UV-I 14 W/m 19.6 C 3.2 km/h
08.07.2020 20:44 20.0 C 71 % 1016.1 mbar 0.00 mm 2.2 km/h W-SW 244 0 min 0.0 UV-I 14 W/m 20.0 C 3.2 km/h
08.07.2020 20:42 19.9 C 69 % 1016.2 mbar 0.00 mm 3.6 km/h W-SW 244 0 min 0.0 UV-I 14 W/m 19.9 C 6.4 km/h
08.07.2020 20:40 19.9 C 72 % 1016.1 mbar 0.00 mm 3.8 km/h W-SW 244 0 min 0.0 UV-I 14 W/m 19.9 C 4.8 km/h
08.07.2020 20:38 20.1 C 70 % 1016.1 mbar 0.00 mm 3.5 km/h W-SW 245 0 min 0.0 UV-I 14 W/m 20.1 C 4.8 km/h
08.07.2020 20:36 20.2 C 71 % 1016.0 mbar 0.00 mm 2.0 km/h W-SW 244 0 min 0.0 UV-I 14 W/m 20.2 C 3.2 km/h
08.07.2020 20:34 20.4 C 69 % 1016.0 mbar 0.00 mm 3.6 km/h W-SW 244 0 min 0.0 UV-I 14 W/m 20.4 C 4.8 km/h
08.07.2020 20:32 20.5 C 66 % 1015.9 mbar 0.00 mm 4.2 km/h W-SW 252 0 min 0.0 UV-I 14 W/m 20.5 C 6.4 km/h
08.07.2020 20:30 20.3 C 71 % 1016.0 mbar 0.00 mm 3.9 km/h W-SW 253 0 min 0.0 UV-I 14 W/m 20.3 C 6.4 km/h
08.07.2020 20:28 20.4 C 70 % 1015.9 mbar 0.00 mm 2.6 km/h W-SW 249 0 min 0.0 UV-I 14 W/m 20.4 C 4.8 km/h
08.07.2020 20:26 20.6 C 70 % 1015.9 mbar 0.00 mm 2.1 km/h W-SW 249 0 min 0.0 UV-I 14 W/m 20.6 C 3.2 km/h
08.07.2020 20:24 20.9 C 69 % 1015.9 mbar 0.00 mm 2.9 km/h W-SW 249 0 min 0.0 UV-I 16 W/m 20.9 C 4.8 km/h
08.07.2020 20:22 20.9 C 67 % 1015.8 mbar 0.00 mm 3.5 km/h W-SW 249 0 min 0.0 UV-I 16 W/m 20.9 C 4.8 km/h
08.07.2020 20:20 20.9 C 68 % 1015.9 mbar 0.00 mm 4.4 km/h W-SW 249 0 min 0.0 UV-I 18 W/m 20.9 C 6.4 km/h
08.07.2020 20:18 20.8 C 69 % 1015.8 mbar 0.00 mm 4.7 km/h W-SW 240 0 min 0.0 UV-I 18 W/m 20.8 C 6.4 km/h
08.07.2020 20:16 20.8 C 71 % 1015.8 mbar 0.00 mm 1.6 km/h W 260 0 min 0.0 UV-I 19 W/m 20.8 C 3.2 km/h
08.07.2020 20:14 20.9 C 70 % 1015.8 mbar 0.00 mm 1.6 km/h W 260 0 min 0.0 UV-I 23 W/m 20.9 C 3.2 km/h
08.07.2020 20:12 21.1 C 69 % 1015.8 mbar 0.00 mm 2.1 km/h W 260 0 min 0.0 UV-I 26 W/m 21.1 C 3.2 km/h
08.07.2020 20:10 21.4 C 70 % 1015.7 mbar 0.00 mm 2.0 km/h W 260 0 min 0.0 UV-I 28 W/m 21.4 C 3.2 km/h
08.07.2020 20:08 21.6 C 70 % 1015.7 mbar 0.00 mm 2.9 km/h W 260 0 min 0.0 UV-I 42 W/m 21.6 C 4.8 km/h
08.07.2020 20:06 21.8 C 72 % 1015.7 mbar 0.00 mm 2.8 km/h W 260 0 min 0.0 UV-I 83 W/m 21.8 C 3.2 km/h
08.07.2020 20:04 21.9 C 72 % 1015.6 mbar 0.00 mm 3.0 km/h W 260 0 min 0.0 UV-I 121 W/m 21.9 C 4.8 km/h
08.07.2020 20:02 21.9 C 71 % 1015.6 mbar 0.00 mm 3.7 km/h W 274 0 min 0.0 UV-I 130 W/m 21.9 C 4.8 km/h
08.07.2020 20:00 22.1 C 71 % 1015.5 mbar 0.00 mm 3.8 km/h W 268 0 min 0.0 UV-I 128 W/m 22.1 C 4.8 km/h
08.07.2020 19:58 22.2 C 68 % 1015.5 mbar 0.00 mm 5.9 km/h W-SW 253 0 min 0.0 UV-I 121 W/m 22.2 C 8.0 km/h
08.07.2020 19:56 22.3 C 71 % 1015.6 mbar 0.00 mm 6.4 km/h W-SW 240 0 min 0.0 UV-I 127 W/m 22.3 C 8.0 km/h
08.07.2020 19:54 22.4 C 69 % 1015.5 mbar 0.00 mm 5.2 km/h W-SW 240 0 min 0.0 UV-I 116 W/m 22.4 C 6.4 km/h
08.07.2020 19:52 22.6 C 71 % 1015.5 mbar 0.00 mm 4.4 km/h SW 233 0 min 0.0 UV-I 146 W/m 22.6 C 4.8 km/h
08.07.2020 19:50 22.9 C 72 % 1015.6 mbar 0.00 mm 3.8 km/h W 259 0 min 0.0 UV-I 163 W/m 22.9 C 4.8 km/h
08.07.2020 19:48 23.2 C 63 % 1015.6 mbar 0.00 mm 3.9 km/h W-SW 252 0 min 0.0 UV-I 169 W/m 23.2 C 6.4 km/h
08.07.2020 19:46 23.2 C 67 % 1015.6 mbar 0.00 mm 5.3 km/h W-SW 246 0 min 0.0 UV-I 172 W/m 23.2 C 9.7 km/h
08.07.2020 19:44 23.4 C 67 % 1015.6 mbar 0.00 mm 6.4 km/h W-SW 245 0 min 0.0 UV-I 172 W/m 23.4 C 12.9 km/h
08.07.2020 19:42 23.7 C 61 % 1015.6 mbar 0.00 mm 6.1 km/h W 262 0 min 0.0 UV-I 185 W/m 23.7 C 8.0 km/h
08.07.2020 19:40 23.8 C 57 % 1015.6 mbar 0.00 mm 6.3 km/h W-SW 241 0 min 0.0 UV-I 179 W/m 23.8 C 9.7 km/h
08.07.2020 19:38 23.8 C 55 % 1015.6 mbar 0.00 mm 6.5 km/h SW 228 0 min 0.0 UV-I 195 W/m 23.8 C 9.7 km/h
08.07.2020 19:36 23.8 C 57 % 1015.6 mbar 0.00 mm 7.1 km/h S-SW 202 0 min 0.0 UV-I 197 W/m 23.6 C 11.3 km/h
08.07.2020 19:34 24.0 C 56 % 1015.7 mbar 0.00 mm 6.8 km/h W-SW 241 0 min 0.0 UV-I 197 W/m 23.9 C 11.3 km/h
08.07.2020 19:32 23.9 C 54 % 1015.7 mbar 0.00 mm 8.6 km/h W-SW 255 0 min 0.0 UV-I 199 W/m 23.3 C 12.9 km/h
08.07.2020 19:30 23.9 C 58 % 1015.6 mbar 0.00 mm 6.7 km/h SW 226 0 min 0.5 UV-I 202 W/m 23.8 C 9.7 km/h
08.07.2020 19:28 23.9 C 58 % 1015.6 mbar 0.00 mm 7.5 km/h SW 227 0 min 0.5 UV-I 218 W/m 23.6 C 9.7 km/h
08.07.2020 19:26 24.1 C 62 % 1015.6 mbar 0.00 mm 5.8 km/h SW 229 0 min 0.5 UV-I 227 W/m 24.1 C 8.0 km/h
08.07.2020 19:24 24.3 C 57 % 1015.6 mbar 0.00 mm 5.3 km/h SW 227 0 min 0.5 UV-I 234 W/m 24.3 C 8.0 km/h
08.07.2020 19:22 24.4 C 58 % 1015.6 mbar 0.00 mm 5.9 km/h SW 229 0 min 0.5 UV-I 237 W/m 24.4 C 8.0 km/h
08.07.2020 19:20 24.6 C 58 % 1015.6 mbar 0.00 mm 6.2 km/h SW 222 0 min 0.6 UV-I 244 W/m 24.6 C 8.0 km/h
08.07.2020 19:18 24.6 C 54 % 1015.7 mbar 0.00 mm 6.0 km/h SW 227 0 min 0.6 UV-I 229 W/m 24.6 C 8.0 km/h
08.07.2020 19:16 24.6 C 54 % 1015.7 mbar 0.00 mm 4.5 km/h SW 225 0 min 0.6 UV-I 257 W/m 24.6 C 8.0 km/h
08.07.2020 19:14 24.6 C 57 % 1015.7 mbar 0.00 mm 4.5 km/h SW 236 0 min 0.6 UV-I 262 W/m 24.6 C 8.0 km/h
08.07.2020 19:12 24.7 C 57 % 1015.7 mbar 0.00 mm 3.7 km/h SW 232 0 min 0.7 UV-I 265 W/m 24.7 C 4.8 km/h
08.07.2020 19:10 24.9 C 64 % 1015.7 mbar 0.00 mm 3.0 km/h W-NW 283 2 min 0.7 UV-I 276 W/m 24.9 C 4.8 km/h
08.07.2020 19:08 25.2 C 52 % 1015.7 mbar 0.00 mm 3.0 km/h W-NW 283 2 min 0.7 UV-I 281 W/m 25.2 C 4.8 km/h
08.07.2020 19:06 25.6 C 59 % 1015.7 mbar 0.00 mm 1.0 km/h N 358 2 min 0.7 UV-I 285 W/m 25.6 C 3.2 km/h
08.07.2020 19:04 25.9 C 44 % 1015.7 mbar 0.00 mm 0.9 km/h N 358 2 min 0.8 UV-I 292 W/m 25.9 C 3.2 km/h
08.07.2020 19:02 25.8 C 46 % 1015.7 mbar 0.00 mm 1.9 km/h N 358 2 min 0.8 UV-I 297 W/m 25.8 C 3.2 km/h
08.07.2020 19:00 25.9 C 44 % 1015.7 mbar 0.00 mm 3.6 km/h N 358 2 min 0.8 UV-I 302 W/m 25.9 C 6.4 km/h
08.07.2020 18:58 25.9 C 48 % 1015.6 mbar 0.00 mm 2.8 km/h N-NO 13 2 min 0.9 UV-I 308 W/m 25.9 C 6.4 km/h
08.07.2020 18:56 25.9 C 44 % 1015.6 mbar 0.00 mm 3.4 km/h N-NO 16 2 min 0.9 UV-I 315 W/m 25.9 C 4.8 km/h
08.07.2020 18:54 25.9 C 45 % 1015.7 mbar 0.00 mm 5.1 km/h N-NO 29 2 min 0.9 UV-I 318 W/m 25.9 C 8.0 km/h
08.07.2020 18:52 26.0 C 43 % 1015.6 mbar 0.00 mm 4.7 km/h N-NW 344 2 min 1.0 UV-I 325 W/m 26.0 C 8.0 km/h
08.07.2020 18:50 26.1 C 43 % 1015.7 mbar 0.00 mm 3.0 km/h N-NW 347 2 min 1.0 UV-I 327 W/m 26.1 C 6.4 km/h
08.07.2020 18:48 26.2 C 44 % 1015.6 mbar 0.00 mm 2.5 km/h N-NW 347 2 min 1.0 UV-I 325 W/m 26.2 C 6.4 km/h
08.07.2020 18:46 26.2 C 42 % 1015.7 mbar 0.00 mm 2.3 km/h N-NW 347 2 min 0.9 UV-I 334 W/m 26.2 C 8.0 km/h
08.07.2020 18:44 26.2 C 44 % 1015.7 mbar 0.00 mm 1.6 km/h NW 320 2 min 1.1 UV-I 341 W/m 26.2 C 3.2 km/h
08.07.2020 18:42 26.2 C 45 % 1015.7 mbar 0.00 mm 1.7 km/h NW 317 2 min 1.1 UV-I 348 W/m 26.2 C 3.2 km/h
08.07.2020 18:40 26.2 C 47 % 1015.7 mbar 0.00 mm 1.0 km/h NW 316 2 min 1.1 UV-I 355 W/m 26.2 C 3.2 km/h
08.07.2020 18:38 26.2 C 40 % 1015.6 mbar 0.00 mm 0.8 km/h NW 316 2 min 1.2 UV-I 359 W/m 26.2 C 1.6 km/h
08.07.2020 18:36 26.2 C 42 % 1015.6 mbar 0.00 mm 3.5 km/h NW 316 2 min 1.2 UV-I 362 W/m 26.2 C 4.8 km/h
08.07.2020 18:34 26.2 C 45 % 1015.7 mbar 0.00 mm 2.6 km/h N 3 2 min 1.2 UV-I 373 W/m 26.2 C 4.8 km/h
08.07.2020 18:32 26.1 C 50 % 1015.7 mbar 0.00 mm 3.6 km/h N 3 2 min 1.3 UV-I 373 W/m 26.1 C 4.8 km/h
08.07.2020 18:30 26.2 C 43 % 1015.6 mbar 0.00 mm 2.8 km/h N-NO 16 2 min 1.3 UV-I 376 W/m 26.2 C 4.8 km/h
08.07.2020 18:28 26.1 C 45 % 1015.6 mbar 0.00 mm 4.5 km/h N-NO 16 2 min 1.3 UV-I 388 W/m 26.1 C 6.4 km/h
08.07.2020 18:26 26.2 C 50 % 1015.6 mbar 0.00 mm 3.8 km/h N 349 2 min 1.4 UV-I 390 W/m 26.2 C 8.0 km/h
08.07.2020 18:24 26.2 C 45 % 1015.6 mbar 0.00 mm 2.6 km/h N 349 2 min 1.4 UV-I 394 W/m 26.2 C 6.4 km/h
08.07.2020 18:22 26.0 C 44 % 1015.6 mbar 0.00 mm 4.0 km/h N 349 2 min 1.4 UV-I 399 W/m 26.0 C 6.4 km/h
08.07.2020 18:20 26.1 C 47 % 1015.6 mbar 0.00 mm 2.4 km/h N-NW 348 2 min 1.5 UV-I 406 W/m 26.1 C 3.2 km/h
08.07.2020 18:18 26.1 C 47 % 1015.7 mbar 0.00 mm 2.5 km/h N-NW 348 2 min 1.5 UV-I 410 W/m 26.1 C 8.0 km/h
08.07.2020 18:16 26.2 C 48 % 1015.7 mbar 0.00 mm 2.7 km/h N-NW 348 2 min 1.5 UV-I 387 W/m 26.2 C 8.0 km/h
08.07.2020 18:14 26.3 C 49 % 1015.8 mbar 0.00 mm 4.9 km/h N 353 2 min 1.6 UV-I 404 W/m 26.3 C 8.0 km/h
08.07.2020 18:12 26.5 C 49 % 1015.7 mbar 0.00 mm 2.3 km/h N 1 2 min 1.7 UV-I 432 W/m 26.5 C 8.0 km/h
08.07.2020 18:10 26.3 C 49 % 1015.7 mbar 0.00 mm 3.0 km/h N 1 2 min 1.7 UV-I 431 W/m 26.3 C 4.8 km/h
08.07.2020 18:08 26.1 C 44 % 1015.8 mbar 0.00 mm 2.9 km/h N 358 2 min 1.7 UV-I 438 W/m 26.1 C 6.4 km/h
08.07.2020 18:06 26.2 C 43 % 1015.7 mbar 0.00 mm 0.7 km/h N 358 2 min 1.8 UV-I 439 W/m 26.2 C 3.2 km/h
08.07.2020 18:04 26.2 C 46 % 1015.7 mbar 0.00 mm 3.4 km/h N 358 2 min 1.8 UV-I 445 W/m 26.2 C 6.4 km/h
08.07.2020 18:02 26.3 C 44 % 1015.7 mbar 0.00 mm 3.2 km/h N 355 2 min 1.8 UV-I 448 W/m 26.3 C 4.8 km/h
08.07.2020 18:00 26.2 C 52 % 1015.7 mbar 0.00 mm 2.6 km/h N 355 2 min 1.9 UV-I 455 W/m 26.2 C 4.8 km/h
08.07.2020 17:58 26.1 C 46 % 1015.7 mbar 0.00 mm 1.9 km/h N 354 2 min 1.9 UV-I 461 W/m 26.1 C 3.2 km/h
08.07.2020 17:56 26.0 C 46 % 1015.7 mbar 0.00 mm 0.8 km/h N 354 2 min 2.0 UV-I 466 W/m 26.0 C 1.6 km/h
08.07.2020 17:54 26.1 C 44 % 1015.7 mbar 0.00 mm 2.8 km/h N 354 2 min 2.0 UV-I 471 W/m 26.1 C 3.2 km/h
08.07.2020 17:52 26.3 C 51 % 1015.7 mbar 0.00 mm 2.0 km/h N 354 2 min 2.1 UV-I 475 W/m 26.3 C 3.2 km/h
08.07.2020 17:50 26.2 C 44 % 1015.7 mbar 0.00 mm 2.4 km/h N 354 2 min 2.1 UV-I 480 W/m 26.2 C 4.8 km/h
08.07.2020 17:48 26.1 C 50 % 1015.7 mbar 0.00 mm 1.8 km/h N 353 2 min 2.2 UV-I 485 W/m 26.1 C 3.2 km/h
08.07.2020 17:46 26.0 C 45 % 1015.8 mbar 0.00 mm 2.0 km/h N 353 2 min 2.2 UV-I 489 W/m 26.0 C 3.2 km/h
08.07.2020 17:44 26.1 C 48 % 1015.7 mbar 0.00 mm 4.5 km/h N 353 2 min 2.2 UV-I 494 W/m 26.1 C 8.0 km/h
08.07.2020 17:42 26.0 C 48 % 1015.7 mbar 0.00 mm 3.6 km/h N 353 2 min 2.2 UV-I 501 W/m 26.0 C 6.4 km/h
08.07.2020 17:40 26.0 C 47 % 1015.7 mbar 0.00 mm 2.7 km/h N-NW 337 2 min 2.3 UV-I 506 W/m 26.0 C 4.8 km/h
08.07.2020 17:38 26.1 C 44 % 1015.7 mbar 0.00 mm 3.3 km/h N-NW 331 2 min 2.3 UV-I 513 W/m 26.1 C 4.8 km/h
08.07.2020 17:36 26.1 C 47 % 1015.7 mbar 0.00 mm 5.1 km/h N 4 2 min 2.3 UV-I 517 W/m 26.1 C 6.4 km/h
08.07.2020 17:34 25.8 C 47 % 1015.7 mbar 0.00 mm 4.0 km/h N-NO 26 2 min 2.3 UV-I 520 W/m 25.8 C 6.4 km/h
08.07.2020 17:32 25.8 C 45 % 1015.7 mbar 0.00 mm 2.1 km/h N-NO 18 2 min 2.4 UV-I 524 W/m 25.8 C 4.8 km/h
08.07.2020 17:30 25.9 C 46 % 1015.6 mbar 0.00 mm 3.2 km/h N-NW 333 2 min 2.4 UV-I 531 W/m 25.9 C 6.4 km/h
08.07.2020 17:28 25.9 C 49 % 1015.7 mbar 0.00 mm 3.1 km/h N 358 2 min 2.2 UV-I 534 W/m 25.9 C 4.8 km/h
08.07.2020 17:26 25.9 C 47 % 1015.6 mbar 0.00 mm 2.2 km/h N 7 2 min 2.5 UV-I 540 W/m 25.9 C 3.2 km/h
08.07.2020 17:24 25.8 C 45 % 1015.7 mbar 0.00 mm 1.9 km/h N 7 2 min 2.2 UV-I 550 W/m 25.8 C 4.8 km/h
08.07.2020 17:22 25.7 C 48 % 1015.7 mbar 0.00 mm 3.4 km/h N 7 2 min 2.6 UV-I 554 W/m 25.7 C 6.4 km/h
08.07.2020 17:20 25.7 C 49 % 1015.7 mbar 0.00 mm 3.2 km/h N-NW 345 2 min 2.4 UV-I 561 W/m 25.7 C 6.4 km/h
08.07.2020 17:18 25.6 C 47 % 1015.7 mbar 0.00 mm 2.9 km/h N 5 2 min 2.6 UV-I 561 W/m 25.6 C 4.8 km/h
08.07.2020 17:16 25.7 C 49 % 1015.8 mbar 0.00 mm 3.7 km/h N 6 2 min 2.7 UV-I 568 W/m 25.7 C 6.4 km/h
08.07.2020 17:14 25.7 C 53 % 1015.8 mbar 0.00 mm 2.6 km/h N 351 2 min 2.7 UV-I 570 W/m 25.7 C 6.4 km/h
08.07.2020 17:12 25.8 C 51 % 1015.8 mbar 0.00 mm 1.8 km/h N 351 2 min 2.7 UV-I 577 W/m 25.8 C 3.2 km/h
08.07.2020 17:10 25.8 C 48 % 1015.8 mbar 0.00 mm 0.8 km/h N 351 2 min 2.8 UV-I 580 W/m 25.8 C 1.6 km/h
08.07.2020 17:08 25.7 C 47 % 1015.8 mbar 0.00 mm 1.9 km/h N 351 2 min 2.4 UV-I 506 W/m 25.7 C 3.2 km/h
08.07.2020 17:06 25.7 C 54 % 1015.8 mbar 0.00 mm 4.2 km/h N 6 2 min 2.9 UV-I 592 W/m 25.7 C 6.4 km/h
08.07.2020 17:04 25.6 C 47 % 1015.8 mbar 0.00 mm 2.2 km/h N-NO 14 2 min 2.7 UV-I 599 W/m 25.6 C 4.8 km/h
08.07.2020 17:02 25.6 C 53 % 1015.8 mbar 0.00 mm 4.1 km/h N-NO 14 2 min 3.0 UV-I 601 W/m 25.6 C 6.4 km/h
08.07.2020 17:00 25.6 C 48 % 1015.8 mbar 0.00 mm 1.5 km/h N 5 2 min 2.8 UV-I 608 W/m 25.6 C 3.2 km/h
08.07.2020 16:58 25.8 C 51 % 1015.9 mbar 0.00 mm 2.3 km/h N 5 2 min 2.5 UV-I 612 W/m 25.8 C 6.4 km/h
08.07.2020 16:56 26.1 C 49 % 1015.8 mbar 0.00 mm 5.2 km/h N 358 2 min 3.1 UV-I 615 W/m 26.1 C 6.4 km/h
08.07.2020 16:54 26.0 C 55 % 1015.8 mbar 0.00 mm 5.7 km/h NO 53 2 min 2.8 UV-I 624 W/m 26.0 C 9.7 km/h
08.07.2020 16:52 25.9 C 48 % 1015.8 mbar 0.00 mm 4.2 km/h N-NO 24 2 min 3.3 UV-I 629 W/m 25.9 C 6.4 km/h
08.07.2020 16:50 25.9 C 51 % 1015.9 mbar 0.00 mm 2.6 km/h N 4 2 min 3.4 UV-I 636 W/m 25.9 C 4.8 km/h
08.07.2020 16:48 26.0 C 49 % 1015.9 mbar 0.00 mm 5.6 km/h N 4 2 min 3.5 UV-I 645 W/m 26.0 C 11.3 km/h
08.07.2020 16:46 26.2 C 50 % 1015.9 mbar 0.00 mm 4.2 km/h NO 34 2 min 3.3 UV-I 650 W/m 26.2 C 9.7 km/h
08.07.2020 16:44 26.1 C 57 % 1015.9 mbar 0.00 mm 6.3 km/h NO 35 2 min 3.5 UV-I 652 W/m 26.1 C 9.7 km/h
08.07.2020 16:42 25.8 C 54 % 1015.9 mbar 0.00 mm 2.8 km/h NO 53 2 min 3.7 UV-I 663 W/m 25.8 C 4.8 km/h
08.07.2020 16:40 25.9 C 51 % 1015.9 mbar 0.00 mm 2.2 km/h N-NW 345 2 min 3.8 UV-I 673 W/m 25.9 C 6.4 km/h
08.07.2020 16:38 25.9 C 53 % 1015.9 mbar 0.00 mm 6.0 km/h N-NO 29 2 min 3.9 UV-I 677 W/m 25.9 C 8.0 km/h
08.07.2020 16:36 25.8 C 49 % 1015.9 mbar 0.00 mm 5.2 km/h N 3 2 min 4.0 UV-I 680 W/m 25.8 C 8.0 km/h
08.07.2020 16:34 25.7 C 52 % 1015.9 mbar 0.00 mm 5.1 km/h N-NO 15 2 min 4.0 UV-I 693 W/m 25.7 C 8.0 km/h
08.07.2020 16:32 25.5 C 49 % 1015.9 mbar 0.00 mm 4.9 km/h NO 43 2 min 4.1 UV-I 698 W/m 25.5 C 6.4 km/h
08.07.2020 16:30 25.4 C 55 % 1015.9 mbar 0.00 mm 3.2 km/h N-NW 337 2 min 4.2 UV-I 707 W/m 25.4 C 4.8 km/h
08.07.2020 16:28 25.4 C 49 % 1015.9 mbar 0.00 mm 3.0 km/h NW 324 2 min 4.2 UV-I 715 W/m 25.4 C 6.4 km/h
08.07.2020 16:26 25.6 C 48 % 1015.9 mbar 0.00 mm 4.3 km/h N-NW 332 2 min 3.2 UV-I 478 W/m 25.6 C 9.7 km/h
08.07.2020 16:24 25.8 C 52 % 1015.9 mbar 0.00 mm 4.8 km/h N-NO 25 2 min 4.1 UV-I 698 W/m 25.8 C 6.4 km/h
08.07.2020 16:22 25.8 C 55 % 1015.9 mbar 0.00 mm 6.5 km/h NO 37 2 min 4.4 UV-I 724 W/m 25.8 C 9.7 km/h
08.07.2020 16:20 25.6 C 56 % 1015.9 mbar 0.00 mm 6.5 km/h NO 42 2 min 4.5 UV-I 726 W/m 25.6 C 8.0 km/h
08.07.2020 16:18 25.3 C 58 % 1015.8 mbar 0.00 mm 2.7 km/h NO 52 2 min 4.5 UV-I 722 W/m 25.3 C 6.4 km/h
08.07.2020 16:16 25.2 C 48 % 1015.8 mbar 0.00 mm 2.4 km/h N-NW 337 2 min 4.6 UV-I 735 W/m 25.2 C 4.8 km/h
08.07.2020 16:14 25.3 C 48 % 1015.8 mbar 0.00 mm 5.8 km/h N-NO 12 2 min 4.7 UV-I 745 W/m 25.3 C 9.7 km/h
08.07.2020 16:12 25.4 C 49 % 1015.8 mbar 0.00 mm 5.4 km/h N-NW 343 2 min 4.4 UV-I 700 W/m 25.4 C 9.7 km/h
08.07.2020 16:10 25.5 C 52 % 1015.8 mbar 0.00 mm 6.4 km/h N 2 2 min 4.8 UV-I 754 W/m 25.5 C 9.7 km/h
08.07.2020 16:08 25.6 C 54 % 1015.8 mbar 0.00 mm 5.1 km/h N 360 2 min 4.9 UV-I 768 W/m 25.6 C 9.7 km/h
08.07.2020 16:06 25.4 C 52 % 1015.8 mbar 0.00 mm 4.9 km/h N-NO 12 2 min 5.0 UV-I 772 W/m 25.4 C 9.7 km/h
08.07.2020 16:04 25.4 C 50 % 1015.8 mbar 0.00 mm 2.6 km/h NW 318 2 min 5.1 UV-I 788 W/m 25.4 C 6.4 km/h
08.07.2020 16:02 25.6 C 47 % 1015.8 mbar 0.00 mm 3.1 km/h N-NO 26 2 min 5.2 UV-I 805 W/m 25.6 C 6.4 km/h
08.07.2020 16:00 25.4 C 52 % 1015.8 mbar 0.00 mm 6.9 km/h N-NO 26 2 min 5.0 UV-I 729 W/m 25.3 C 9.7 km/h
08.07.2020 15:58 25.3 C 51 % 1015.8 mbar 0.00 mm 4.4 km/h N-NO 33 2 min 5.2 UV-I 802 W/m 25.3 C 9.7 km/h
08.07.2020 15:56 25.2 C 52 % 1015.8 mbar 0.00 mm 3.6 km/h N-NW 333 2 min 5.4 UV-I 831 W/m 25.2 C 6.4 km/h
08.07.2020 15:54 25.2 C 54 % 1015.8 mbar 0.00 mm 3.5 km/h N 355 2 min 5.5 UV-I 847 W/m 25.2 C 8.0 km/h
08.07.2020 15:52 25.0 C 55 % 1015.8 mbar 0.00 mm 3.3 km/h N 4 2 min 5.6 UV-I 856 W/m 25.0 C 4.8 km/h
08.07.2020 15:50 24.7 C 51 % 1015.8 mbar 0.00 mm 0.4 km/h N 4 2 min 5.5 UV-I 624 W/m 24.7 C 1.6 km/h
08.07.2020 15:48 24.7 C 51 % 1015.8 mbar 0.00 mm 2.8 km/h N 4 2 min 4.5 UV-I 624 W/m 24.7 C 4.8 km/h
08.07.2020 15:46 24.7 C 52 % 1015.8 mbar 0.00 mm 3.7 km/h N 4 2 min 4.0 UV-I 582 W/m 24.7 C 6.4 km/h
08.07.2020 15:44 24.8 C 53 % 1015.8 mbar 0.00 mm 1.5 km/h N 351 2 min 3.9 UV-I 459 W/m 24.8 C 3.2 km/h
08.07.2020 15:42 24.8 C 51 % 1015.8 mbar 0.00 mm 4.7 km/h N 351 2 min 4.3 UV-I 490 W/m 24.8 C 8.0 km/h
08.07.2020 15:40 25.0 C 56 % 1015.8 mbar 0.00 mm 3.7 km/h N-NO 16 2 min 3.7 UV-I 443 W/m 25.0 C 6.4 km/h
08.07.2020 15:38 25.0 C 56 % 1015.8 mbar 0.00 mm 2.1 km/h N-NO 22 2 min 4.0 UV-I 847 W/m 25.0 C 3.2 km/h
08.07.2020 15:36 24.8 C 54 % 1015.8 mbar 0.00 mm 3.0 km/h N-NO 22 2 min 5.4 UV-I 809 W/m 24.8 C 4.8 km/h
08.07.2020 15:34 24.8 C 56 % 1015.8 mbar 0.00 mm 2.9 km/h N-NO 20 2 min 5.2 UV-I 766 W/m 24.8 C 4.8 km/h
08.07.2020 15:32 24.8 C 52 % 1015.8 mbar 0.00 mm 4.2 km/h N-NO 20 2 min 4.8 UV-I 740 W/m 24.8 C 6.4 km/h
08.07.2020 15:30 24.8 C 53 % 1015.9 mbar 0.00 mm 2.7 km/h N-NO 19 2 min 4.2 UV-I 487 W/m 24.8 C 4.8 km/h
08.07.2020 15:28 24.7 C 56 % 1015.9 mbar 0.00 mm 3.7 km/h N-NO 19 2 min 3.8 UV-I 524 W/m 24.7 C 6.4 km/h
08.07.2020 15:26 24.7 C 56 % 1015.9 mbar 0.00 mm 5.0 km/h NO 37 2 min 4.0 UV-I 352 W/m 24.7 C 6.4 km/h
08.07.2020 15:24 24.8 C 58 % 1015.9 mbar 0.00 mm 6.1 km/h N-NO 25 2 min 3.7 UV-I 427 W/m 24.8 C 8.0 km/h
08.07.2020 15:22 24.9 C 53 % 1015.8 mbar 0.00 mm 5.2 km/h N 6 2 min 3.8 UV-I 564 W/m 24.9 C 8.0 km/h
08.07.2020 15:20 25.1 C 52 % 1015.8 mbar 0.00 mm 7.8 km/h N 1 2 min 3.6 UV-I 420 W/m 24.8 C 11.3 km/h
08.07.2020 15:18 25.1 C 54 % 1015.8 mbar 0.00 mm 9.7 km/h NO 41 2 min 3.8 UV-I 452 W/m 24.3 C 14.5 km/h
08.07.2020 15:16 25.0 C 60 % 1015.8 mbar 0.00 mm 6.6 km/h N-NO 29 2 min 4.8 UV-I 670 W/m 25.0 C 9.7 km/h
08.07.2020 15:14 24.8 C 57 % 1015.8 mbar 0.00 mm 2.2 km/h NO 43 2 min 5.7 UV-I 833 W/m 24.8 C 6.4 km/h
08.07.2020 15:12 24.7 C 53 % 1015.8 mbar 0.00 mm 3.7 km/h NO 43 2 min 6.3 UV-I 932 W/m 24.7 C 6.4 km/h
08.07.2020 15:10 24.7 C 50 % 1015.9 mbar 0.00 mm 2.6 km/h O 99 2 min 6.4 UV-I 860 W/m 24.7 C 3.2 km/h
08.07.2020 15:08 25.2 C 49 % 1016.0 mbar 0.00 mm 3.5 km/h NO 56 2 min 5.1 UV-I 891 W/m 25.2 C 6.4 km/h
08.07.2020 15:06 25.3 C 54 % 1015.9 mbar 0.00 mm 8.4 km/h NO 56 2 min 6.4 UV-I 863 W/m 24.8 C 11.3 km/h
08.07.2020 15:04 25.3 C 55 % 1015.9 mbar 0.00 mm 7.9 km/h NO 41 2 min 6.3 UV-I 863 W/m 24.9 C 11.3 km/h
08.07.2020 15:02 25.1 C 62 % 1015.9 mbar 0.00 mm 8.1 km/h N 8 2 min 6.4 UV-I 860 W/m 24.7 C 11.3 km/h
08.07.2020 15:00 24.8 C 57 % 1015.9 mbar 0.00 mm 6.3 km/h NO 44 2 min 6.4 UV-I 854 W/m 24.8 C 9.7 km/h
08.07.2020 14:58 24.6 C 54 % 1015.9 mbar 0.00 mm 6.5 km/h N-NW 338 2 min 6.4 UV-I 849 W/m 24.6 C 9.7 km/h
08.07.2020 14:56 24.6 C 50 % 1015.9 mbar 0.00 mm 3.6 km/h W 276 2 min 6.4 UV-I 847 W/m 24.6 C 6.4 km/h
08.07.2020 14:54 24.7 C 49 % 1015.9 mbar 0.00 mm 4.1 km/h N 360 2 min 6.4 UV-I 844 W/m 24.7 C 8.0 km/h
08.07.2020 14:52 24.6 C 52 % 1015.9 mbar 0.00 mm 6.7 km/h N 2 2 min 6.4 UV-I 844 W/m 24.5 C 9.7 km/h
08.07.2020 14:50 24.5 C 51 % 1015.9 mbar 0.00 mm 5.5 km/h N-NO 18 2 min 6.4 UV-I 838 W/m 24.5 C 9.7 km/h
08.07.2020 14:48 24.5 C 58 % 1015.9 mbar 0.00 mm 3.1 km/h N 357 2 min 6.5 UV-I 851 W/m 24.5 C 6.4 km/h
08.07.2020 14:46 24.4 C 56 % 1015.9 mbar 0.00 mm 3.1 km/h NO 45 2 min 6.5 UV-I 851 W/m 24.4 C 8.0 km/h
08.07.2020 14:44 24.4 C 54 % 1016.0 mbar 0.00 mm 2.5 km/h N-NW 343 2 min 6.6 UV-I 840 W/m 24.4 C 6.4 km/h
08.07.2020 14:42 24.4 C 56 % 1015.9 mbar 0.00 mm 4.5 km/h N-NO 18 2 min 6.6 UV-I 851 W/m 24.4 C 8.0 km/h
08.07.2020 14:40 24.4 C 59 % 1016.0 mbar 0.00 mm 3.5 km/h N-NW 341 2 min 6.6 UV-I 849 W/m 24.4 C 8.0 km/h
08.07.2020 14:38 24.5 C 60 % 1016.0 mbar 0.00 mm 5.3 km/h N 358 2 min 6.6 UV-I 847 W/m 24.5 C 9.7 km/h
08.07.2020 14:36 24.4 C 57 % 1016.0 mbar 0.00 mm 7.2 km/h NO 41 2 min 6.6 UV-I 849 W/m 24.2 C 11.3 km/h
08.07.2020 14:34 24.4 C 52 % 1015.9 mbar 0.00 mm 5.9 km/h N-NW 339 2 min 6.6 UV-I 849 W/m 24.4 C 9.7 km/h
08.07.2020 14:32 24.4 C 54 % 1016.0 mbar 0.00 mm 5.3 km/h N 2 2 min 6.7 UV-I 849 W/m 24.4 C 9.7 km/h
08.07.2020 14:30 24.4 C 52 % 1016.0 mbar 0.00 mm 5.0 km/h N-NO 25 2 min 6.7 UV-I 851 W/m 24.4 C 8.0 km/h
08.07.2020 14:28 24.6 C 57 % 1016.0 mbar 0.00 mm 4.8 km/h O-NO 66 2 min 6.7 UV-I 854 W/m 24.6 C 11.3 km/h
08.07.2020 14:26 24.7 C 54 % 1016.1 mbar 0.00 mm 5.2 km/h N-NO 31 2 min 6.7 UV-I 854 W/m 24.7 C 8.0 km/h
08.07.2020 14:24 24.7 C 57 % 1016.1 mbar 0.00 mm 9.1 km/h NO 37 2 min 6.7 UV-I 858 W/m 24.0 C 12.9 km/h
08.07.2020 14:22 24.7 C 57 % 1016.1 mbar 0.00 mm 7.6 km/h O-NO 58 2 min 6.8 UV-I 858 W/m 24.4 C 12.9 km/h
08.07.2020 14:20 24.6 C 59 % 1016.1 mbar 0.00 mm 9.8 km/h NO 47 2 min 6.8 UV-I 860 W/m 23.8 C 12.9 km/h
08.07.2020 14:18 24.4 C 56 % 1016.2 mbar 0.00 mm 8.7 km/h NO 39 2 min 6.8 UV-I 860 W/m 23.8 C 14.5 km/h
08.07.2020 14:16 24.3 C 54 % 1016.1 mbar 0.00 mm 6.2 km/h N-NO 28 2 min 6.8 UV-I 861 W/m 24.3 C 9.7 km/h
08.07.2020 14:14 24.3 C 54 % 1016.2 mbar 0.00 mm 1.9 km/h N-NO 20 2 min 6.9 UV-I 861 W/m 24.3 C 3.2 km/h
08.07.2020 14:12 24.4 C 60 % 1016.2 mbar 0.00 mm 2.7 km/h NO 35 2 min 6.9 UV-I 863 W/m 24.4 C 4.8 km/h
08.07.2020 14:10 24.1 C 63 % 1016.2 mbar 0.00 mm 5.3 km/h NO 35 2 min 6.9 UV-I 861 W/m 24.1 C 8.0 km/h
08.07.2020 14:08 23.7 C 52 % 1016.2 mbar 0.00 mm 4.5 km/h N-NO 30 2 min 6.9 UV-I 861 W/m 23.7 C 8.0 km/h
08.07.2020 14:06 23.9 C 54 % 1016.2 mbar 0.00 mm 1.4 km/h N 2 2 min 6.9 UV-I 858 W/m 23.9 C 4.8 km/h
08.07.2020 14:04 23.7 C 55 % 1016.2 mbar 0.00 mm 4.9 km/h N-NO 27 2 min 6.9 UV-I 860 W/m 23.7 C 8.0 km/h
08.07.2020 14:02 23.4 C 54 % 1016.2 mbar 0.00 mm 4.1 km/h N-NO 33 2 min 6.9 UV-I 860 W/m 23.4 C 8.0 km/h
08.07.2020 14:00 23.3 C 55 % 1016.2 mbar 0.00 mm 3.1 km/h O-NO 70 2 min 6.9 UV-I 860 W/m 23.3 C 4.8 km/h
08.07.2020 13:58 23.3 C 56 % 1016.2 mbar 0.00 mm 3.4 km/h W-NW 286 2 min 6.9 UV-I 858 W/m 23.3 C 6.4 km/h
08.07.2020 13:56 23.4 C 59 % 1016.2 mbar 0.00 mm 2.6 km/h NW 309 2 min 6.9 UV-I 858 W/m 23.4 C 4.8 km/h
08.07.2020 13:54 23.4 C 54 % 1016.2 mbar 0.00 mm 3.3 km/h NW 309 2 min 6.9 UV-I 860 W/m 23.4 C 4.8 km/h
08.07.2020 13:52 23.4 C 59 % 1016.2 mbar 0.00 mm 3.2 km/h NW 324 2 min 6.9 UV-I 861 W/m 23.4 C 8.0 km/h
08.07.2020 13:50 23.3 C 52 % 1016.2 mbar 0.00 mm 3.3 km/h N-NW 338 2 min 6.9 UV-I 860 W/m 23.3 C 6.4 km/h
08.07.2020 13:48 23.3 C 53 % 1016.2 mbar 0.00 mm 3.9 km/h N 360 2 min 6.9 UV-I 861 W/m 23.3 C 8.0 km/h
08.07.2020 13:46 23.3 C 54 % 1016.2 mbar 0.00 mm 5.3 km/h N-NW 348 2 min 5.7 UV-I 861 W/m 23.3 C 9.7 km/h
08.07.2020 13:44 23.3 C 57 % 1016.2 mbar 0.00 mm 4.0 km/h NW 324 2 min 6.9 UV-I 860 W/m 23.3 C 8.0 km/h
08.07.2020 13:42 23.3 C 57 % 1016.3 mbar 0.00 mm 2.3 km/h O-NO 58 2 min 6.6 UV-I 860 W/m 23.3 C 4.8 km/h
08.07.2020 13:40 23.4 C 59 % 1016.4 mbar 0.00 mm 4.4 km/h NW 324 2 min 6.9 UV-I 860 W/m 23.4 C 8.0 km/h
08.07.2020 13:38 23.4 C 53 % 1016.3 mbar 0.00 mm 6.1 km/h O 83 2 min 6.9 UV-I 860 W/m 23.4 C 9.7 km/h
08.07.2020 13:36 23.4 C 59 % 1016.4 mbar 0.00 mm 6.0 km/h O-NO 61 2 min 6.9 UV-I 858 W/m 23.4 C 9.7 km/h
08.07.2020 13:34 23.2 C 62 % 1016.4 mbar 0.00 mm 2.0 km/h N-NO 12 2 min 6.9 UV-I 856 W/m 23.2 C 6.4 km/h
08.07.2020 13:32 23.1 C 61 % 1016.5 mbar 0.00 mm 1.8 km/h N-NW 329 2 min 6.9 UV-I 858 W/m 23.1 C 3.2 km/h
08.07.2020 13:30 23.1 C 54 % 1016.5 mbar 0.00 mm 4.3 km/h N-NW 330 2 min 6.9 UV-I 858 W/m 23.1 C 6.4 km/h
08.07.2020 13:28 23.1 C 57 % 1016.5 mbar 0.00 mm 5.3 km/h N 356 2 min 6.9 UV-I 858 W/m 23.1 C 11.3 km/h
08.07.2020 13:26 22.9 C 60 % 1016.5 mbar 0.00 mm 3.6 km/h N-NW 330 2 min 6.9 UV-I 856 W/m 22.9 C 8.0 km/h
08.07.2020 13:24 22.8 C 57 % 1016.5 mbar 0.00 mm 2.0 km/h N 349 2 min 7.0 UV-I 856 W/m 22.8 C 3.2 km/h
08.07.2020 13:22 22.8 C 54 % 1016.6 mbar 0.00 mm 2.3 km/h W-NW 303 2 min 6.9 UV-I 856 W/m 22.8 C 4.8 km/h
08.07.2020 13:20 23.1 C 58 % 1016.6 mbar 0.00 mm 2.5 km/h N-NO 31 2 min 5.1 UV-I 853 W/m 23.1 C 4.8 km/h
08.07.2020 13:18 23.3 C 55 % 1016.6 mbar 0.00 mm 4.3 km/h N-NO 31 2 min 6.7 UV-I 854 W/m 23.3 C 8.0 km/h
08.07.2020 13:16 23.4 C 63 % 1016.6 mbar 0.00 mm 0.3 km/h N 354 2 min 6.3 UV-I 854 W/m 23.4 C 1.6 km/h
08.07.2020 13:14 23.2 C 62 % 1016.6 mbar 0.00 mm 2.4 km/h N 354 2 min 6.9 UV-I 854 W/m 23.2 C 4.8 km/h
08.07.2020 13:12 22.9 C 60 % 1016.6 mbar 0.00 mm 4.1 km/h O-NO 66 2 min 6.9 UV-I 800 W/m 22.9 C 6.4 km/h
08.07.2020 13:10 22.6 C 57 % 1016.7 mbar 0.00 mm 5.0 km/h NO 54 2 min 6.5 UV-I 849 W/m 22.6 C 8.0 km/h
08.07.2020 13:08 22.6 C 58 % 1016.7 mbar 0.00 mm 4.3 km/h W-NW 292 0 min 4.4 UV-I 265 W/m 22.6 C 6.4 km/h
08.07.2020 13:06 22.6 C 58 % 1016.7 mbar 0.00 mm 5.3 km/h N 1 2 min 6.9 UV-I 847 W/m 22.6 C 8.0 km/h
08.07.2020 13:04 22.6 C 57 % 1016.7 mbar 0.00 mm 6.8 km/h N-NW 348 2 min 6.9 UV-I 847 W/m 22.5 C 9.7 km/h
08.07.2020 13:02 22.6 C 62 % 1016.7 mbar 0.00 mm 5.0 km/h N 355 2 min 6.8 UV-I 844 W/m 22.6 C 11.3 km/h
08.07.2020 13:00 22.7 C 56 % 1016.7 mbar 0.00 mm 6.3 km/h NW 310 2 min 4.6 UV-I 844 W/m 22.7 C 9.7 km/h
08.07.2020 12:58 22.7 C 57 % 1016.7 mbar 0.00 mm 3.4 km/h O-NO 58 2 min 6.7 UV-I 844 W/m 22.7 C 6.4 km/h
08.07.2020 12:56 22.7 C 55 % 1016.7 mbar 0.00 mm 2.5 km/h S 175 2 min 6.8 UV-I 840 W/m 22.7 C 3.2 km/h
08.07.2020 12:54 22.6 C 55 % 1016.7 mbar 0.00 mm 4.2 km/h SO 124 2 min 6.8 UV-I 840 W/m 22.6 C 6.4 km/h
08.07.2020 12:52 22.5 C 55 % 1016.7 mbar 0.00 mm 2.7 km/h S-SW 193 2 min 6.7 UV-I 838 W/m 22.5 C 4.8 km/h
08.07.2020 12:50 22.7 C 59 % 1016.7 mbar 0.00 mm 5.4 km/h O-NO 60 2 min 3.8 UV-I 838 W/m 22.7 C 11.3 km/h
08.07.2020 12:48 22.5 C 54 % 1016.7 mbar 0.00 mm 2.6 km/h NO 55 2 min 6.7 UV-I 838 W/m 22.5 C 6.4 km/h
08.07.2020 12:46 22.6 C 59 % 1016.8 mbar 0.00 mm 7.0 km/h N-NO 31 2 min 6.7 UV-I 835 W/m 22.4 C 12.9 km/h
08.07.2020 12:44 22.3 C 58 % 1016.8 mbar 0.00 mm 3.3 km/h N-NO 31 2 min 6.7 UV-I 835 W/m 22.3 C 6.4 km/h
08.07.2020 12:42 22.3 C 60 % 1016.8 mbar 0.00 mm 2.3 km/h N-NO 31 2 min 6.7 UV-I 833 W/m 22.3 C 4.8 km/h
08.07.2020 12:40 22.2 C 56 % 1016.8 mbar 0.00 mm 2.4 km/h N 10 2 min 6.6 UV-I 833 W/m 22.2 C 4.8 km/h
08.07.2020 12:38 22.0 C 65 % 1016.8 mbar 0.00 mm 2.8 km/h SW 216 2 min 6.6 UV-I 833 W/m 22.0 C 4.8 km/h
08.07.2020 12:36 22.1 C 60 % 1016.8 mbar 0.00 mm 2.9 km/h SW 216 2 min 6.6 UV-I 830 W/m 22.1 C 4.8 km/h
08.07.2020 12:34 22.1 C 54 % 1016.8 mbar 0.00 mm 1.9 km/h N-NW 344 2 min 6.5 UV-I 831 W/m 22.1 C 3.2 km/h
08.07.2020 12:32 22.0 C 55 % 1016.9 mbar 0.00 mm 1.6 km/h N-NW 343 2 min 6.5 UV-I 828 W/m 22.0 C 3.2 km/h
08.07.2020 12:30 21.9 C 59 % 1016.8 mbar 0.00 mm 3.8 km/h N-NW 343 2 min 6.5 UV-I 826 W/m 21.9 C 6.4 km/h
08.07.2020 12:28 21.8 C 60 % 1016.9 mbar 0.00 mm 2.5 km/h N-NW 329 2 min 6.4 UV-I 824 W/m 21.8 C 6.4 km/h
08.07.2020 12:26 22.0 C 54 % 1016.9 mbar 0.00 mm 2.6 km/h N-NW 342 2 min 6.4 UV-I 821 W/m 22.0 C 3.2 km/h
08.07.2020 12:24 22.3 C 56 % 1016.9 mbar 0.00 mm 2.9 km/h N-NO 14 2 min 6.3 UV-I 819 W/m 22.3 C 4.8 km/h
08.07.2020 12:22 22.4 C 56 % 1016.9 mbar 0.00 mm 2.7 km/h N-NO 14 2 min 6.3 UV-I 817 W/m 22.4 C 6.4 km/h
08.07.2020 12:20 22.3 C 62 % 1016.9 mbar 0.00 mm 4.2 km/h NO 46 2 min 6.3 UV-I 816 W/m 22.3 C 6.4 km/h
08.07.2020 12:18 21.8 C 61 % 1016.9 mbar 0.00 mm 3.3 km/h N-NO 30 2 min 6.2 UV-I 814 W/m 21.8 C 4.8 km/h
08.07.2020 12:16 21.4 C 54 % 1016.9 mbar 0.00 mm 1.9 km/h W-SW 244 2 min 6.1 UV-I 812 W/m 21.4 C 4.8 km/h
08.07.2020 12:14 21.5 C 57 % 1016.9 mbar 0.00 mm 3.7 km/h W-SW 244 2 min 6.2 UV-I 812 W/m 21.5 C 8.0 km/h
08.07.2020 12:12 21.5 C 57 % 1016.9 mbar 0.00 mm 4.0 km/h W-SW 243 2 min 6.1 UV-I 809 W/m 21.5 C 8.0 km/h
08.07.2020 12:10 21.6 C 55 % 1016.9 mbar 0.00 mm 2.3 km/h NW 308 2 min 6.1 UV-I 807 W/m 21.6 C 4.8 km/h
08.07.2020 12:08 21.5 C 63 % 1016.9 mbar 0.00 mm 1.3 km/h NW 306 2 min 6.0 UV-I 805 W/m 21.5 C 3.2 km/h
08.07.2020 12:06 21.6 C 54 % 1016.9 mbar 0.00 mm 4.5 km/h NW 306 2 min 6.0 UV-I 803 W/m 21.6 C 8.0 km/h
08.07.2020 12:04 21.6 C 57 % 1017.0 mbar 0.00 mm 6.5 km/h N-NW 339 2 min 6.0 UV-I 802 W/m 21.6 C 9.7 km/h
08.07.2020 12:02 21.4 C 58 % 1016.9 mbar 0.00 mm 2.1 km/h W 266 2 min 5.9 UV-I 796 W/m 21.4 C 4.8 km/h
08.07.2020 12:00 21.5 C 55 % 1017.0 mbar 0.00 mm 4.5 km/h W 262 2 min 5.9 UV-I 795 W/m 21.5 C 6.4 km/h
08.07.2020 11:58 21.5 C 57 % 1017.0 mbar 0.00 mm 5.6 km/h N-NW 344 2 min 5.8 UV-I 793 W/m 21.5 C 8.0 km/h
08.07.2020 11:56 21.3 C 57 % 1017.0 mbar 0.00 mm 2.8 km/h N-NO 15 2 min 5.8 UV-I 791 W/m 21.3 C 6.4 km/h
08.07.2020 11:54 21.2 C 54 % 1017.0 mbar 0.00 mm 5.9 km/h N 349 2 min 5.8 UV-I 789 W/m 21.2 C 11.3 km/h
08.07.2020 11:52 21.2 C 54 % 1017.0 mbar 0.00 mm 3.9 km/h W 275 2 min 5.7 UV-I 786 W/m 21.2 C 4.8 km/h
08.07.2020 11:50 21.2 C 54 % 1017.0 mbar 0.00 mm 4.3 km/h W-SW 254 2 min 5.7 UV-I 782 W/m 21.2 C 6.4 km/h
08.07.2020 11:48 21.1 C 60 % 1017.0 mbar 0.00 mm 3.5 km/h N 8 2 min 5.7 UV-I 782 W/m 21.1 C 8.0 km/h
08.07.2020 11:46 21.0 C 59 % 1017.0 mbar 0.00 mm 3.7 km/h W-NW 303 2 min 5.6 UV-I 779 W/m 21.0 C 6.4 km/h
08.07.2020 11:44 21.0 C 53 % 1017.0 mbar 0.00 mm 3.8 km/h W 267 2 min 5.5 UV-I 773 W/m 21.0 C 6.4 km/h
08.07.2020 11:42 21.0 C 53 % 1017.1 mbar 0.00 mm 1.2 km/h O-NO 70 2 min 5.5 UV-I 772 W/m 21.0 C 3.2 km/h
08.07.2020 11:40 21.1 C 56 % 1017.0 mbar 0.00 mm 4.2 km/h N 351 2 min 5.4 UV-I 770 W/m 21.1 C 9.7 km/h
08.07.2020 11:38 21.1 C 55 % 1017.1 mbar 0.00 mm 4.7 km/h NW 325 2 min 5.4 UV-I 766 W/m 21.1 C 9.7 km/h
08.07.2020 11:36 21.2 C 56 % 1017.0 mbar 0.00 mm 7.8 km/h N-NW 339 2 min 5.4 UV-I 765 W/m 20.7 C 11.3 km/h
08.07.2020 11:34 21.1 C 61 % 1017.0 mbar 0.00 mm 5.8 km/h N 355 2 min 5.3 UV-I 761 W/m 21.1 C 9.7 km/h
08.07.2020 11:32 21.0 C 57 % 1017.0 mbar 0.00 mm 2.4 km/h N-NW 341 2 min 5.3 UV-I 756 W/m 21.0 C 6.4 km/h
08.07.2020 11:30 21.1 C 57 % 1017.0 mbar 0.00 mm 5.9 km/h NW 326 2 min 5.2 UV-I 756 W/m 21.1 C 11.3 km/h
08.07.2020 11:28 21.1 C 59 % 1016.9 mbar 0.00 mm 5.8 km/h N-NO 12 2 min 5.2 UV-I 752 W/m 21.1 C 9.7 km/h
08.07.2020 11:26 21.1 C 57 % 1016.9 mbar 0.00 mm 3.4 km/h N-NO 23 2 min 5.2 UV-I 749 W/m 21.1 C 6.4 km/h
08.07.2020 11:24 20.9 C 62 % 1016.9 mbar 0.00 mm 3.2 km/h N-NO 23 2 min 5.1 UV-I 747 W/m 20.9 C 6.4 km/h
08.07.2020 11:22 20.8 C 56 % 1016.9 mbar 0.00 mm 1.8 km/h N-NO 18 2 min 5.0 UV-I 744 W/m 20.8 C 4.8 km/h
08.07.2020 11:20 20.7 C 52 % 1016.9 mbar 0.00 mm 4.0 km/h N-NO 18 2 min 5.0 UV-I 742 W/m 20.7 C 4.8 km/h
08.07.2020 11:18 20.7 C 61 % 1016.8 mbar 0.00 mm 2.8 km/h N-NO 16 2 min 5.0 UV-I 738 W/m 20.7 C 6.4 km/h
08.07.2020 11:16 20.6 C 60 % 1016.9 mbar 0.00 mm 4.1 km/h N-NO 19 2 min 4.9 UV-I 735 W/m 20.6 C 6.4 km/h
08.07.2020 11:14 20.4 C 60 % 1016.9 mbar 0.00 mm 4.3 km/h N 357 2 min 4.9 UV-I 731 W/m 20.4 C 6.4 km/h
08.07.2020 11:12 20.6 C 54 % 1017.0 mbar 0.00 mm 1.9 km/h N 354 2 min 4.8 UV-I 726 W/m 20.6 C 3.2 km/h
08.07.2020 11:10 20.6 C 59 % 1017.0 mbar 0.00 mm 1.7 km/h N 354 2 min 4.8 UV-I 724 W/m 20.6 C 4.8 km/h
08.07.2020 11:08 20.5 C 59 % 1017.0 mbar 0.00 mm 1.3 km/h N 354 2 min 4.7 UV-I 719 W/m 20.5 C 3.2 km/h
08.07.2020 11:06 20.4 C 53 % 1017.0 mbar 0.00 mm 2.8 km/h N 354 2 min 4.7 UV-I 717 W/m 20.4 C 6.4 km/h
08.07.2020 11:04 20.3 C 55 % 1017.0 mbar 0.00 mm 3.8 km/h N-NW 337 2 min 4.6 UV-I 712 W/m 20.3 C 4.8 km/h
08.07.2020 11:02 20.4 C 58 % 1017.0 mbar 0.00 mm 6.2 km/h N-NW 330 2 min 4.6 UV-I 708 W/m 20.4 C 9.7 km/h
08.07.2020 11:00 20.3 C 59 % 1017.0 mbar 0.00 mm 3.9 km/h N 9 2 min 4.5 UV-I 705 W/m 20.3 C 8.0 km/h
08.07.2020 10:58 20.2 C 64 % 1016.9 mbar 0.00 mm 2.6 km/h W 277 2 min 4.5 UV-I 694 W/m 20.2 C 4.8 km/h
08.07.2020 10:56 20.2 C 61 % 1016.9 mbar 0.00 mm 1.6 km/h N-NW 334 2 min 4.4 UV-I 694 W/m 20.2 C 3.2 km/h
08.07.2020 10:54 20.2 C 61 % 1016.9 mbar 0.00 mm 1.8 km/h N-NW 334 2 min 4.4 UV-I 691 W/m 20.2 C 3.2 km/h
08.07.2020 10:52 20.2 C 61 % 1016.9 mbar 0.00 mm 0.8 km/h N-NW 334 2 min 4.3 UV-I 687 W/m 20.2 C 1.6 km/h
08.07.2020 10:50 20.2 C 64 % 1016.9 mbar 0.00 mm 2.2 km/h N-NW 334 2 min 4.3 UV-I 686 W/m 20.2 C 4.8 km/h
08.07.2020 10:48 19.9 C 61 % 1016.9 mbar 0.00 mm 3.4 km/h N-NW 331 2 min 3.5 UV-I 682 W/m 19.9 C 4.8 km/h
08.07.2020 10:46 19.9 C 64 % 1017.0 mbar 0.00 mm 2.6 km/h N-NW 331 2 min 4.1 UV-I 675 W/m 19.9 C 6.4 km/h
08.07.2020 10:44 19.8 C 64 % 1017.0 mbar 0.00 mm 2.8 km/h NW 325 2 min 4.1 UV-I 668 W/m 19.8 C 6.4 km/h
08.07.2020 10:42 19.8 C 64 % 1017.0 mbar 0.00 mm 0.9 km/h NW 310 2 min 4.0 UV-I 666 W/m 19.8 C 3.2 km/h
08.07.2020 10:40 19.7 C 67 % 1017.0 mbar 0.00 mm 1.2 km/h NW 310 2 min 4.0 UV-I 659 W/m 19.7 C 3.2 km/h
08.07.2020 10:38 19.7 C 67 % 1017.0 mbar 0.00 mm 3.4 km/h NW 310 2 min 3.9 UV-I 657 W/m 19.7 C 6.4 km/h
08.07.2020 10:36 19.7 C 65 % 1017.0 mbar 0.00 mm 3.0 km/h NW 326 2 min 3.9 UV-I 654 W/m 19.7 C 4.8 km/h
08.07.2020 10:34 19.6 C 62 % 1017.0 mbar 0.00 mm 2.9 km/h NW 307 2 min 3.8 UV-I 649 W/m 19.6 C 6.4 km/h
08.07.2020 10:32 19.7 C 64 % 1017.0 mbar 0.00 mm 4.4 km/h N-NW 341 2 min 3.8 UV-I 645 W/m 19.7 C 8.0 km/h
08.07.2020 10:30 19.8 C 61 % 1017.0 mbar 0.00 mm 6.4 km/h N-NW 341 2 min 3.7 UV-I 643 W/m 19.8 C 9.7 km/h
08.07.2020 10:28 19.9 C 65 % 1017.0 mbar 0.00 mm 4.1 km/h N-NO 26 2 min 3.7 UV-I 636 W/m 19.9 C 6.4 km/h
08.07.2020 10:26 19.8 C 66 % 1017.0 mbar 0.00 mm 3.3 km/h N-NO 12 2 min 3.7 UV-I 635 W/m 19.8 C 6.4 km/h
08.07.2020 10:24 19.6 C 72 % 1016.9 mbar 0.00 mm 2.6 km/h N-NO 20 2 min 3.6 UV-I 629 W/m 19.6 C 6.4 km/h
08.07.2020 10:22 19.3 C 72 % 1016.9 mbar 0.00 mm 2.8 km/h N-NW 338 2 min 3.5 UV-I 624 W/m 19.3 C 4.8 km/h
08.07.2020 10:20 19.2 C 71 % 1016.9 mbar 0.00 mm 3.0 km/h NW 309 2 min 3.5 UV-I 621 W/m 19.2 C 4.8 km/h
08.07.2020 10:18 19.1 C 71 % 1016.9 mbar 0.00 mm 1.8 km/h W-NW 283 2 min 3.4 UV-I 613 W/m 19.1 C 3.2 km/h
08.07.2020 10:16 19.0 C 67 % 1016.9 mbar 0.00 mm 3.2 km/h W-NW 283 2 min 3.4 UV-I 610 W/m 19.0 C 4.8 km/h
08.07.2020 10:14 19.1 C 65 % 1017.0 mbar 0.00 mm 1.4 km/h W-NW 283 2 min 3.3 UV-I 606 W/m 19.1 C 4.8 km/h
08.07.2020 10:12 19.1 C 67 % 1017.0 mbar 0.00 mm 2.9 km/h N 8 2 min 3.3 UV-I 601 W/m 19.1 C 4.8 km/h
08.07.2020 10:10 18.8 C 71 % 1016.9 mbar 0.00 mm 0.6 km/h SO 124 2 min 3.2 UV-I 592 W/m 18.8 C 1.6 km/h
08.07.2020 10:08 18.7 C 67 % 1017.0 mbar 0.00 mm 0.1 km/h SO 124 2 min 3.2 UV-I 592 W/m 18.7 C 1.6 km/h
08.07.2020 10:06 18.7 C 70 % 1017.0 mbar 0.00 mm 2.3 km/h SO 124 2 min 3.1 UV-I 589 W/m 18.7 C 3.2 km/h
08.07.2020 10:04 18.6 C 68 % 1017.0 mbar 0.00 mm 2.9 km/h S-SO 147 2 min 3.1 UV-I 582 W/m 18.6 C 4.8 km/h
08.07.2020 10:02 18.7 C 71 % 1017.0 mbar 0.00 mm 2.8 km/h NO 45 2 min 3.0 UV-I 578 W/m 18.7 C 4.8 km/h
08.07.2020 10:00 18.8 C 67 % 1017.0 mbar 0.00 mm 2.4 km/h NO 45 2 min 3.0 UV-I 575 W/m 18.8 C 4.8 km/h
08.07.2020 09:58 18.7 C 67 % 1017.0 mbar 0.00 mm 2.6 km/h NO 45 2 min 2.9 UV-I 568 W/m 18.7 C 3.2 km/h
08.07.2020 09:56 18.6 C 67 % 1017.1 mbar 0.00 mm 0.9 km/h NO 45 2 min 2.9 UV-I 564 W/m 18.6 C 3.2 km/h
08.07.2020 09:54 18.5 C 66 % 1017.1 mbar 0.00 mm 1.1 km/h NO 36 2 min 2.8 UV-I 561 W/m 18.5 C 3.2 km/h
08.07.2020 09:52 18.6 C 65 % 1017.1 mbar 0.00 mm 2.6 km/h NO 36 2 min 2.8 UV-I 554 W/m 18.6 C 4.8 km/h
08.07.2020 09:50 18.6 C 67 % 1017.2 mbar 0.00 mm 2.0 km/h NO 36 2 min 2.7 UV-I 550 W/m 18.6 C 3.2 km/h
08.07.2020 09:48 18.6 C 71 % 1017.2 mbar 0.00 mm 1.5 km/h NO 36 2 min 2.6 UV-I 545 W/m 18.6 C 3.2 km/h
08.07.2020 09:46 18.7 C 73 % 1017.2 mbar 0.00 mm 4.1 km/h NO 41 2 min 2.6 UV-I 540 W/m 18.7 C 4.8 km/h
08.07.2020 09:44 18.6 C 71 % 1017.2 mbar 0.00 mm 3.8 km/h NO 51 2 min 2.6 UV-I 534 W/m 18.6 C 4.8 km/h
08.07.2020 09:42 18.6 C 71 % 1017.2 mbar 0.00 mm 5.0 km/h NO 52 2 min 2.5 UV-I 531 W/m 18.6 C 8.0 km/h
08.07.2020 09:40 18.3 C 72 % 1017.1 mbar 0.00 mm 5.0 km/h O-NO 57 2 min 2.5 UV-I 526 W/m 18.3 C 8.0 km/h
08.07.2020 09:38 18.3 C 70 % 1017.1 mbar 0.00 mm 3.3 km/h N-NO 32 2 min 2.4 UV-I 520 W/m 18.3 C 4.8 km/h
08.07.2020 09:36 18.3 C 73 % 1017.1 mbar 0.00 mm 3.7 km/h N-NO 30 2 min 2.4 UV-I 513 W/m 18.3 C 4.8 km/h
08.07.2020 09:34 18.2 C 71 % 1017.2 mbar 0.00 mm 3.3 km/h N-NO 30 2 min 2.3 UV-I 508 W/m 18.2 C 4.8 km/h
08.07.2020 09:32 18.0 C 74 % 1017.2 mbar 0.00 mm 2.1 km/h N-NO 12 2 min 2.3 UV-I 506 W/m 18.0 C 4.8 km/h
08.07.2020 09:30 17.8 C 76 % 1017.2 mbar 0.00 mm 3.2 km/h N-NO 12 2 min 2.2 UV-I 499 W/m 17.8 C 4.8 km/h
08.07.2020 09:28 17.7 C 73 % 1017.2 mbar 0.00 mm 3.5 km/h N-NO 12 2 min 2.2 UV-I 494 W/m 17.7 C 4.8 km/h
08.07.2020 09:26 17.7 C 74 % 1017.2 mbar 0.00 mm 3.5 km/h N-NO 12 2 min 2.1 UV-I 489 W/m 17.7 C 6.4 km/h
08.07.2020 09:24 17.4 C 77 % 1017.3 mbar 0.00 mm 2.6 km/h N-NO 22 2 min 2.1 UV-I 482 W/m 17.4 C 4.8 km/h
08.07.2020 09:22 17.4 C 74 % 1017.3 mbar 0.00 mm 2.6 km/h N-NO 22 2 min 2.1 UV-I 476 W/m 17.4 C 4.8 km/h
08.07.2020 09:20 17.4 C 75 % 1017.2 mbar 0.00 mm 2.4 km/h N-NO 22 2 min 2.0 UV-I 471 W/m 17.4 C 6.4 km/h
08.07.2020 09:18 17.4 C 72 % 1017.2 mbar 0.00 mm 1.7 km/h NO 43 2 min 2.0 UV-I 466 W/m 17.4 C 3.2 km/h
08.07.2020 09:16 17.4 C 74 % 1017.3 mbar 0.00 mm 2.8 km/h NO 44 2 min 1.9 UV-I 462 W/m 17.4 C 4.8 km/h
08.07.2020 09:14 17.3 C 72 % 1017.3 mbar 0.00 mm 3.1 km/h NO 44 2 min 1.9 UV-I 457 W/m 17.3 C 4.8 km/h
08.07.2020 09:12 17.3 C 70 % 1017.3 mbar 0.00 mm 2.6 km/h N-NO 28 2 min 1.8 UV-I 450 W/m 17.3 C 6.4 km/h
08.07.2020 09:10 17.3 C 77 % 1017.4 mbar 0.00 mm 4.5 km/h N-NO 28 2 min 1.8 UV-I 445 W/m 17.3 C 6.4 km/h
08.07.2020 09:08 17.2 C 74 % 1017.3 mbar 0.00 mm 2.7 km/h NO 44 2 min 1.7 UV-I 441 W/m 17.2 C 3.2 km/h
08.07.2020 09:06 17.1 C 73 % 1017.3 mbar 0.00 mm 3.2 km/h NO 44 2 min 1.7 UV-I 434 W/m 17.1 C 4.8 km/h
08.07.2020 09:04 16.9 C 75 % 1017.3 mbar 0.00 mm 3.3 km/h NO 44 2 min 1.7 UV-I 429 W/m 16.9 C 6.4 km/h
08.07.2020 09:02 17.0 C 74 % 1017.3 mbar 0.00 mm 2.9 km/h NO 44 2 min 1.6 UV-I 425 W/m 17.0 C 4.8 km/h
08.07.2020 09:00 16.9 C 78 % 1017.2 mbar 0.00 mm 4.8 km/h NO 44 2 min 1.6 UV-I 418 W/m 16.9 C 6.4 km/h
08.07.2020 08:58 16.9 C 80 % 1017.2 mbar 0.00 mm 4.1 km/h NO 44 2 min 1.6 UV-I 413 W/m 16.9 C 6.4 km/h
08.07.2020 08:56 16.9 C 75 % 1017.2 mbar 0.00 mm 3.4 km/h O-NO 72 2 min 1.5 UV-I 408 W/m 16.9 C 4.8 km/h
08.07.2020 08:54 17.0 C 78 % 1017.1 mbar 0.00 mm 5.3 km/h O-NO 72 2 min 1.5 UV-I 401 W/m 17.0 C 8.0 km/h
08.07.2020 08:52 17.0 C 78 % 1017.2 mbar 0.00 mm 5.8 km/h N-NO 31 2 min 1.4 UV-I 397 W/m 17.0 C 9.7 km/h
08.07.2020 08:50 16.9 C 79 % 1017.1 mbar 0.00 mm 5.6 km/h N-NO 33 2 min 1.4 UV-I 388 W/m 16.9 C 8.0 km/h
08.07.2020 08:48 16.7 C 79 % 1017.1 mbar 0.00 mm 4.4 km/h N-NO 21 2 min 1.4 UV-I 383 W/m 16.7 C 6.4 km/h
08.07.2020 08:46 16.7 C 77 % 1017.1 mbar 0.00 mm 3.8 km/h N-NO 16 2 min 1.3 UV-I 380 W/m 16.7 C 6.4 km/h
08.07.2020 08:44 16.7 C 78 % 1017.1 mbar 0.00 mm 4.0 km/h N-NO 17 2 min 1.3 UV-I 374 W/m 16.7 C 6.4 km/h
08.07.2020 08:42 16.8 C 79 % 1017.0 mbar 0.00 mm 4.1 km/h N 358 2 min 1.3 UV-I 367 W/m 16.8 C 8.0 km/h
08.07.2020 08:40 16.6 C 80 % 1017.0 mbar 0.00 mm 2.1 km/h W-SW 241 2 min 1.3 UV-I 364 W/m 16.6 C 4.8 km/h
08.07.2020 08:38 16.4 C 78 % 1017.0 mbar 0.00 mm 1.8 km/h W-SW 241 2 min 1.2 UV-I 359 W/m 16.4 C 3.2 km/h
08.07.2020 08:36 16.3 C 82 % 1017.0 mbar 0.00 mm 2.3 km/h W-SW 241 2 min 1.2 UV-I 352 W/m 16.3 C 4.8 km/h
08.07.2020 08:34 16.0 C 80 % 1016.9 mbar 0.00 mm 0.4 km/h W-SW 241 2 min 1.2 UV-I 346 W/m 16.0 C 1.6 km/h
08.07.2020 08:32 15.9 C 81 % 1017.0 mbar 0.00 mm 0.2 km/h W-SW 241 2 min 1.1 UV-I 343 W/m 15.9 C 1.6 km/h
08.07.2020 08:30 15.8 C 82 % 1017.0 mbar 0.00 mm 0.9 km/h W-SW 241 2 min 1.1 UV-I 334 W/m 15.8 C 1.6 km/h
08.07.2020 08:28 15.7 C 80 % 1017.1 mbar 0.00 mm 0.6 km/h W-SW 241 2 min 1.1 UV-I 329 W/m 15.7 C 1.6 km/h
08.07.2020 08:26 15.7 C 82 % 1017.1 mbar 0.00 mm 1.5 km/h W-SW 241 2 min 1.0 UV-I 323 W/m 15.7 C 3.2 km/h
08.07.2020 08:24 15.7 C 82 % 1017.1 mbar 0.00 mm 2.5 km/h W-SW 241 2 min 1.0 UV-I 320 W/m 15.7 C 4.8 km/h
08.07.2020 08:22 15.6 C 80 % 1017.1 mbar 0.00 mm 1.3 km/h W-SW 241 2 min 1.0 UV-I 313 W/m 15.6 C 3.2 km/h
08.07.2020 08:20 15.7 C 82 % 1017.1 mbar 0.00 mm 2.8 km/h W-SW 241 2 min 0.9 UV-I 308 W/m 15.7 C 4.8 km/h
08.07.2020 08:18 15.7 C 80 % 1017.1 mbar 0.00 mm 3.6 km/h W-SW 241 2 min 0.9 UV-I 302 W/m 15.7 C 4.8 km/h
08.07.2020 08:16 15.8 C 83 % 1017.2 mbar 0.00 mm 2.6 km/h W-SW 241 2 min 0.9 UV-I 297 W/m 15.8 C 4.8 km/h
08.07.2020 08:14 15.8 C 80 % 1017.1 mbar 0.00 mm 2.1 km/h W-SW 241 2 min 0.9 UV-I 290 W/m 15.8 C 3.2 km/h
08.07.2020 08:12 15.7 C 82 % 1017.1 mbar 0.00 mm 2.1 km/h W-SW 241 2 min 0.8 UV-I 285 W/m 15.7 C 3.2 km/h
08.07.2020 08:10 15.6 C 81 % 1017.2 mbar 0.00 mm 2.3 km/h W-SW 241 2 min 0.8 UV-I 281 W/m 15.6 C 3.2 km/h
08.07.2020 08:08 15.6 C 83 % 1017.2 mbar 0.00 mm 2.3 km/h W-SW 241 2 min 0.8 UV-I 274 W/m 15.6 C 3.2 km/h
08.07.2020 08:06 15.7 C 84 % 1017.2 mbar 0.00 mm 3.5 km/h W-SW 241 0 min 0.8 UV-I 269 W/m 15.7 C 4.8 km/h
08.07.2020 08:04 15.6 C 84 % 1017.2 mbar 0.00 mm 3.5 km/h W-SW 241 0 min 0.7 UV-I 265 W/m 15.6 C 4.8 km/h
08.07.2020 08:02 15.6 C 81 % 1017.2 mbar 0.00 mm 2.1 km/h W-SW 241 0 min 0.7 UV-I 257 W/m 15.6 C 3.2 km/h
08.07.2020 08:00 15.5 C 81 % 1017.2 mbar 0.00 mm 1.6 km/h W-SW 241 0 min 0.7 UV-I 251 W/m 15.5 C 3.2 km/h
08.07.2020 07:58 15.3 C 82 % 1017.2 mbar 0.00 mm 0.3 km/h W-SW 241 0 min 0.7 UV-I 248 W/m 15.3 C 1.6 km/h
08.07.2020 07:56 15.1 C 82 % 1017.2 mbar 0.00 mm 0.8 km/h W-SW 241 0 min 0.6 UV-I 241 W/m 15.1 C 1.6 km/h
08.07.2020 07:54 14.9 C 83 % 1017.2 mbar 0.00 mm 0.0 km/h W-SW 241 0 min 0.6 UV-I 237 W/m 14.9 C 0.0 km/h
08.07.2020 07:52 14.9 C 83 % 1017.2 mbar 0.00 mm 0.1 km/h W-SW 241 0 min 0.6 UV-I 232 W/m 14.9 C 1.6 km/h
08.07.2020 07:50 14.8 C 83 % 1017.2 mbar 0.00 mm 0.1 km/h W-SW 241 0 min 0.6 UV-I 225 W/m 14.8 C 1.6 km/h
08.07.2020 07:48 14.8 C 82 % 1017.2 mbar 0.00 mm 0.0 km/h W-SW 241 0 min 0.5 UV-I 220 W/m 14.8 C 0.0 km/h
08.07.2020 07:46 14.8 C 83 % 1017.2 mbar 0.00 mm 0.9 km/h W-SW 241 0 min 0.5 UV-I 216 W/m 14.8 C 1.6 km/h
08.07.2020 07:44 14.7 C 84 % 1017.3 mbar 0.00 mm 0.9 km/h W-SW 241 0 min 0.5 UV-I 209 W/m 14.7 C 3.2 km/h
08.07.2020 07:42 14.6 C 85 % 1017.3 mbar 0.00 mm 0.0 km/h W-SW 241 0 min 0.5 UV-I 204 W/m 14.6 C 0.0 km/h
08.07.2020 07:40 14.4 C 85 % 1017.3 mbar 0.00 mm 1.3 km/h W-SW 241 0 min 0.5 UV-I 197 W/m 14.4 C 1.6 km/h
08.07.2020 07:38 14.4 C 85 % 1017.4 mbar 0.00 mm 0.3 km/h W-SW 241 0 min 0.0 UV-I 186 W/m 14.4 C 1.6 km/h
08.07.2020 07:36 14.3 C 86 % 1017.4 mbar 0.00 mm 1.4 km/h W-SW 241 0 min 0.0 UV-I 181 W/m 14.3 C 1.6 km/h
08.07.2020 07:34 14.1 C 87 % 1017.4 mbar 0.00 mm 1.6 km/h W-SW 241 0 min 0.0 UV-I 174 W/m 14.1 C 3.2 km/h
08.07.2020 07:32 13.9 C 89 % 1017.4 mbar 0.00 mm 2.4 km/h W-SW 241 0 min 0.0 UV-I 162 W/m 13.9 C 3.2 km/h
08.07.2020 07:30 13.8 C 89 % 1017.4 mbar 0.00 mm 2.5 km/h W-SW 241 0 min 0.0 UV-I 158 W/m 13.8 C 3.2 km/h
08.07.2020 07:28 13.9 C 90 % 1017.5 mbar 0.00 mm 2.0 km/h W-SW 241 0 min 0.0 UV-I 149 W/m 13.9 C 3.2 km/h
08.07.2020 07:26 13.9 C 89 % 1017.5 mbar 0.00 mm 2.0 km/h W-SW 241 0 min 0.0 UV-I 144 W/m 13.9 C 3.2 km/h
08.07.2020 07:24 14.0 C 88 % 1017.5 mbar 0.00 mm 2.8 km/h W-SW 241 0 min 0.0 UV-I 137 W/m 14.0 C 4.8 km/h
08.07.2020 07:22 14.1 C 87 % 1017.5 mbar 0.00 mm 0.6 km/h W-SW 241 0 min 0.0 UV-I 134 W/m 14.1 C 4.8 km/h
08.07.2020 07:20 14.1 C 86 % 1017.5 mbar 0.00 mm 1.2 km/h W-SW 241 0 min 0.0 UV-I 127 W/m 14.1 C 1.6 km/h
08.07.2020 07:18 14.0 C 85 % 1017.5 mbar 0.00 mm 0.0 km/h W-SW 241 0 min 0.0 UV-I 123 W/m 14.0 C 0.0 km/h
08.07.2020 07:16 13.8 C 86 % 1017.5 mbar 0.00 mm 0.0 km/h W-SW 241 0 min 0.0 UV-I 120 W/m 13.8 C 0.0 km/h
08.07.2020 07:14 13.6 C 90 % 1017.6 mbar 0.00 mm 0.0 km/h W-SW 241 0 min 0.0 UV-I 114 W/m 13.6 C 0.0 km/h
08.07.2020 07:12 13.4 C 89 % 1017.6 mbar 0.00 mm 0.0 km/h W-SW 241 0 min 0.0 UV-I 111 W/m 13.4 C 0.0 km/h
08.07.2020 07:10 13.3 C 89 % 1017.5 mbar 0.00 mm 0.0 km/h W-SW 241 0 min 0.0 UV-I 109 W/m 13.3 C 0.0 km/h
08.07.2020 07:08 13.2 C 89 % 1017.5 mbar 0.00 mm 0.0 km/h W-SW 241 0 min 0.0 UV-I 105 W/m 13.2 C 0.0 km/h
08.07.2020 07:06 13.0 C 91 % 1017.6 mbar 0.00 mm 0.0 km/h W-SW 241 0 min 0.0 UV-I 104 W/m 13.0 C 0.0 km/h
08.07.2020 07:04 12.9 C 91 % 1017.7 mbar 0.00 mm 0.0 km/h W-SW 241 0 min 0.0 UV-I 98 W/m 12.9 C 0.0 km/h
08.07.2020 07:02 12.9 C 91 % 1017.6 mbar 0.00 mm 0.3 km/h W-SW 241 0 min 0.0 UV-I 97 W/m 12.9 C 1.6 km/h
08.07.2020 07:00 12.8 C 91 % 1017.7 mbar 0.00 mm 0.3 km/h W-SW 241 0 min 0.0 UV-I 74 W/m 12.8 C 1.6 km/h
_ Min-Zeit 07:00 18:38 19:52 - 07:04 - - - - - 07:00 07:04
Minimum _ 12.8 C 40 % 1015.5 mbar - 0.0 km/h - - - - - 12.8 C 0.0 km/h
_ Max-Zeit 18:12 07:00 07:00 07:00 14:20 - - 08:08 13:24 15:12 18:12 14:18
Maximum _ 26.5 C 91 % 1017.7 mbar 0.00 mm 9.8 km/h
NO
- - 2 min 7.0 UV-I 932 W/m 26.5 C 14.5 km/h
NO
Durchschnitt _ 18.7 C 72 % 1016.7 mbar #0.00 mm 2.9 km/h W - #0 min. 0.0 UV-I 6 W/m 18.7 C 4.8 km/h